Data Archive--November, 2004

Date Time Heat Index Current Temp Wind Chill High Temp Low Temp Humidity Dew Point Wind Speed Gust Wind Direction Rain Barometer
11/01/2004 12:00 a 48.3 48.3 48.3 48.7 48.0 89 45.2 0.0 0.0 --- 0.00 29.800
11/01/2004 12:30 a 47.8 47.8 47.8 48.1 47.4 89 44.7 0.0 0.0 --- 0.00 29.809
11/01/2004 1:00 a 47.9 47.9 47.9 48.5 47.3 85 43.6 0.0 0.0 --- 0.00 29.810
11/01/2004 1:30 a 48.6 48.6 48.6 48.8 48.3 84 44.0 0.0 0.0 --- 0.00 29.809
11/01/2004 2:00 a 47.6 47.6 47.6 48.3 47.3 88 44.2 0.0 0.0 --- 0.00 29.814
11/01/2004 2:30 a 47.7 47.7 47.7 48.2 47.3 84 43.1 0.0 0.0 --- 0.00 29.818
11/01/2004 3:00 a 48.2 48.2 48.2 48.2 48.1 83 43.3 0.0 0.0 --- 0.00 29.820
11/01/2004 3:30 a 48.0 48.0 48.0 48.4 47.4 83 43.1 0.0 0.0 --- 0.00 29.825
11/01/2004 4:00 a 47.0 47.0 47.0 47.4 46.7 85 42.7 0.0 0.0 --- 0.00 29.841
11/01/2004 4:30 a 46.9 46.9 46.9 47.1 46.7 84 42.3 0.0 0.0 --- 0.00 29.850
11/01/2004 5:00 a 46.3 46.3 46.3 46.7 45.9 84 41.7 0.0 0.0 --- 0.00 29.860
11/01/2004 5:30 a 47.6 47.6 47.6 48.0 46.7 80 41.7 0.0 0.0 --- 0.00 29.869
11/01/2004 6:00 a 49.1 49.1 49.1 50.6 47.5 73 40.8 0.0 2.0 NW 0.00 29.879
11/01/2004 6:30 a 51.1 51.1 51.1 51.3 50.6 71 42.0 0.0 2.0 N 0.00 29.897
11/01/2004 7:00 a 50.4 50.4 50.4 50.9 50.2 73 42.1 0.0 2.0 N 0.00 29.907
11/01/2004 7:30 a 51.8 51.8 51.8 53.3 50.6 67 41.2 0.0 5.0 S 0.00 29.925
11/01/2004 8:00 a 55.5 55.5 55.5 57.6 53.3 61 42.3 0.0 2.0 SW 0.00 29.938
11/01/2004 8:30 a 57.2 57.2 57.2 57.8 56.7 60 43.5 0.0 3.0 E 0.00 29.939
11/01/2004 9:00 a 57.3 57.3 57.3 57.7 57.0 56 41.8 0.0 4.0 SE 0.00 29.938
11/01/2004 9:30 a 57.5 57.5 57.5 57.7 57.3 54 41.0 1.0 5.0 SSE 0.00 29.942
11/01/2004 10:00 a 57.4 57.4 57.4 57.6 57.2 52 39.9 1.0 4.0 SE 0.00 29.952
11/01/2004 10:30 a 58.0 58.0 58.0 58.7 57.5 50 39.5 1.0 5.0 SE 0.00 29.950
11/01/2004 11:00 a 58.7 58.7 58.7 59.7 58.2 48 39.1 1.0 6.0 SE 0.00 29.948
11/01/2004 11:30 a 59.5 59.5 59.5 59.9 59.1 49 40.3 1.0 5.0 SE 0.00 29.954
11/01/2004 12:00 p 67.8 67.8 67.8 73.3 59.9 36 39.9 1.0 4.0 SE 0.00 29.944
11/01/2004 12:30 p 61.8 61.8 61.8 66.0 60.8 45 40.3 1.0 5.0 SE 0.00 29.930
11/01/2004 1:00 p 61.4 61.4 61.4 61.7 61.0 44 39.3 1.0 4.0 SE 0.00 29.932
11/01/2004 1:30 p 61.1 61.1 61.1 61.8 60.4 45 39.6 1.0 3.0 SE 0.00 29.926
11/01/2004 2:00 p 60.5 60.5 60.5 60.7 60.4 44 38.5 1.0 4.0 SE 0.00 29.924
11/01/2004 2:30 p 59.9 59.9 59.9 61.4 59.1 44 38.0 0.0 4.0 SE 0.00 29.937
11/01/2004 3:00 p 60.7 60.7 60.7 61.5 59.8 45 39.3 1.0 5.0 SSE 0.00 29.941
11/01/2004 3:30 p 59.3 59.3 59.3 59.8 58.8 46 38.5 0.0 3.0 SE 0.00 29.949
11/01/2004 4:00 p 58.3 58.3 58.3 58.8 58.0 47 38.2 0.0 3.0 SE 0.00 29.959
11/01/2004 4:30 p 57.2 57.2 57.2 58.0 56.5 49 38.2 0.0 2.0 SE 0.00 29.972
11/01/2004 5:00 p 55.4 55.4 55.4 56.5 54.2 53 38.6 0.0 2.0 SE 0.00 29.991
11/01/2004 5:30 p 53.6 53.6 53.6 54.2 52.6 58 39.2 0.0 1.0 --- 0.00 30.004
11/01/2004 6:00 p 52.6 52.6 52.6 52.9 52.4 59 38.7 0.0 1.0 --- 0.00 30.019
11/01/2004 6:30 p 51.9 51.9 51.9 52.4 51.4 62 39.3 0.0 2.0 --- 0.00 30.016
11/01/2004 7:00 p 50.5 50.5 50.5 51.4 49.9 63 38.4 0.0 1.0 ESE 0.00 30.019
11/01/2004 7:30 p 52.3 52.3 52.3 52.6 51.4 60 38.8 0.0 1.0 --- 0.00 30.029
11/01/2004 8:00 p 51.9 51.9 51.9 52.4 51.4 61 38.9 0.0 2.0 ESE 0.00 30.028
11/01/2004 8:30 p 50.2 50.2 50.2 51.4 48.9 68 40.1 0.0 1.0 ESE 0.00 30.041
11/01/2004 9:00 p 47.7 47.7 47.7 48.9 47.0 71 38.8 0.0 0.0 --- 0.00 30.052
11/01/2004 9:30 p 46.6 46.6 46.6 47.0 46.4 71 37.7 0.0 0.0 --- 0.00 30.052
11/01/2004 10:00 p 46.7 46.7 46.7 47.1 46.5 70 37.4 0.0 0.0 --- 0.00 30.053
11/01/2004 10:30 p 47.0 47.0 47.0 47.3 46.5 72 38.5 0.0 0.0 --- 0.00 30.055
11/01/2004 11:00 p 45.4 45.4 45.4 46.5 44.4 78 39.0 0.0 0.0 --- 0.00 30.058
11/01/2004 11:30 p 43.7 43.7 43.7 44.4 43.0 83 38.9 0.0 0.0 --- 0.00 30.066
11/02/2004 12:00 a 42.4 42.4 42.4 43.0 42.0 85 38.2 0.0 0.0 --- 0.00 30.073
11/02/2004 12:30 a 41.7 41.7 41.7 42.3 41.3 87 38.1 0.0 0.0 --- 0.00 30.067
11/02/2004 1:00 a 41.0 41.0 41.0 41.3 40.7 90 38.3 0.0 0.0 --- 0.00 30.073
11/02/2004 1:30 a 41.1 41.1 41.1 42.0 40.6 89 38.1 0.0 0.0 --- 0.00 30.058
11/02/2004 2:00 a 43.6 43.6 43.6 45.2 42.1 81 38.2 0.0 0.0 --- 0.00 30.064
11/02/2004 2:30 a 46.2 46.2 46.2 46.9 45.2 74 38.4 0.0 0.0 --- 0.00 30.069
11/02/2004 3:00 a 47.0 47.0 47.0 47.2 46.8 73 38.8 0.0 0.0 --- 0.00 30.057
11/02/2004 3:30 a 47.3 47.3 47.3 47.3 47.1 71 38.4 0.0 0.0 --- 0.00 30.056
11/02/2004 4:00 a 47.5 47.5 47.5 47.6 47.3 69 37.9 0.0 2.0 ESE 0.00 30.060
11/02/2004 4:30 a 47.6 47.6 47.6 47.6 47.5 71 38.7 0.0 1.0 --- 0.00 30.065
11/02/2004 5:00 a 47.6 47.6 47.6 47.6 47.5 71 38.7 0.0 0.0 --- 0.00 30.062
11/02/2004 5:30 a 47.6 47.6 47.6 47.6 47.5 71 38.7 0.0 0.0 --- 0.00 30.069
11/02/2004 6:00 a 47.6 47.6 47.6 47.8 47.4 71 38.7 0.0 0.0 --- 0.00 30.080
11/02/2004 6:30 a 47.7 47.7 47.7 47.9 47.4 71 38.8 0.0 0.0 --- 0.00 30.076
11/02/2004 7:00 a 46.8 46.8 46.8 47.3 46.5 74 39.0 0.0 0.0 --- 0.00 30.077
11/02/2004 7:30 a 46.4 46.4 46.4 47.3 46.0 72 37.9 0.0 0.0 --- 0.00 30.080
11/02/2004 8:00 a 49.1 49.1 49.1 51.0 47.3 66 38.2 0.0 0.0 --- 0.00 30.071
11/02/2004 8:30 a 52.5 52.5 52.5 53.2 50.9 66 41.5 0.0 2.0 NE 0.00 30.066
11/02/2004 9:00 a 53.4 53.4 53.4 54.7 52.4 66 42.3 0.0 2.0 N 0.00 30.057
11/02/2004 9:30 a 54.1 54.1 54.1 54.6 53.3 70 44.5 0.0 3.0 NNW 0.00 30.057
11/02/2004 10:00 a 54.7 54.7 54.7 56.1 53.3 66 43.6 0.0 3.0 N 0.00 30.045
11/02/2004 10:30 a 56.4 56.4 56.4 57.3 55.7 66 45.2 0.0 3.0 NNW 0.00 30.038
11/02/2004 11:00 a 57.2 57.2 57.2 57.8 56.7 64 45.1 0.0 3.0 NNW 0.00 30.019
11/02/2004 11:30 a 58.8 58.8 58.8 59.9 57.8 60 45.0 0.0 2.0 N 0.00 29.994
11/02/2004 12:00 p 60.4 60.4 60.4 62.3 59.9 56 44.6 0.0 2.0 NNW 0.00 29.972
11/02/2004 12:30 p 62.8 62.8 62.8 63.2 62.2 56 46.9 1.0 4.0 NNW 0.00 29.951
11/02/2004 1:00 p 62.1 62.1 62.1 62.5 61.8 57 46.7 0.0 3.0 NNW 0.00 29.937
11/02/2004 1:30 p 62.5 62.5 62.5 62.9 62.2 56 46.6 1.0 4.0 NW 0.00 29.924
11/02/2004 2:00 p 62.8 62.8 62.8 63.2 62.5 58 47.8 0.0 3.0 N 0.00 29.912
11/02/2004 2:30 p 62.4 62.4 62.4 62.9 61.9 61 48.8 1.0 3.0 NNW 0.00 29.898
11/02/2004 3:00 p 61.9 61.9 61.9 62.1 61.4 64 49.6 0.0 2.0 NNW 0.00 29.881
11/02/2004 3:30 p 60.9 60.9 60.9 61.4 60.5 67 49.9 0.0 3.0 N 0.00 29.880
11/02/2004 4:00 p 60.2 60.2 60.2 60.5 60.0 68 49.6 0.0 2.0 NNW 0.00 29.875
11/02/2004 4:30 p 59.3 59.3 59.3 59.9 58.6 72 50.3 0.0 4.0 NNW 0.00 29.868
11/02/2004 5:00 p 58.1 58.1 58.1 58.6 57.2 76 50.6 0.0 4.0 NNW 0.00 29.870
11/02/2004 5:30 p 56.6 56.6 56.6 57.2 56.0 79 50.2 0.0 2.0 NNW 0.00 29.856
11/02/2004 6:00 p 55.7 55.7 55.7 56.1 55.2 81 50.0 0.0 2.0 NNW 0.00 29.859
11/02/2004 6:30 p 55.8 55.8 55.8 56.5 55.2 80 49.7 0.0 1.0 NNW 0.00 29.837
11/02/2004 7:00 p 56.6 56.6 56.6 57.0 56.0 81 50.8 0.0 2.0 NNW 0.00 29.807
11/02/2004 7:30 p 55.2 55.2 55.2 56.0 54.7 86 51.1 0.0 2.0 NNW 0.00 29.804
11/02/2004 8:00 p 54.6 54.6 54.6 55.2 54.3 86 50.5 0.0 0.0 --- 0.00 29.796
11/02/2004 8:30 p 55.5 55.5 55.5 55.7 55.2 86 51.4 0.0 0.0 --- 0.00 29.794
11/02/2004 9:00 p 55.9 55.9 55.9 56.0 55.7 86 51.8 0.0 0.0 --- 0.00 29.780
11/02/2004 9:30 p 56.0 56.0 56.0 56.0 55.9 86 51.9 0.0 0.0 --- 0.00 29.761
11/02/2004 10:00 p 55.9 55.9 55.9 56.0 55.8 86 51.8 0.0 0.0 --- 0.00 29.741
11/02/2004 10:30 p 55.9 55.9 55.9 56.0 55.8 87 52.1 0.0 0.0 --- 0.00 29.719
11/02/2004 11:00 p 56.0 56.0 56.0 56.4 55.9 90 53.1 0.0 0.0 --- 0.00 29.692
11/02/2004 11:30 p 56.7 56.7 56.7 56.9 56.4 90 53.8 0.0 0.0 --- 0.00 29.665
11/03/2004 12:00 a 56.4 56.4 56.4 56.8 56.0 92 54.1 0.0 0.0 --- 0.00 29.646
11/03/2004 12:30 a 56.1 56.1 56.1 56.3 55.8 92 53.8 0.0 0.0 --- 0.00 29.653
11/03/2004 1:00 a 55.9 55.9 55.9 56.0 55.8 93 53.9 0.0 0.0 --- 0.00 29.645
11/03/2004 1:30 a 55.9 55.9 55.9 56.0 55.9 95 54.5 0.0 0.0 --- 0.00 29.657
11/03/2004 2:00 a 56.1 56.1 56.1 56.2 56.0 95 54.7 0.0 0.0 --- 0.00 29.653
11/03/2004 2:30 a 56.1 56.1 56.1 56.3 56.0 94 54.4 0.0 0.0 --- 0.00 29.650
11/03/2004 3:00 a 56.0 56.0 56.0 56.3 55.8 100 56.0 0.0 0.0 --- 0.00 29.651
11/03/2004 3:30 a 55.6 55.6 55.6 55.8 55.5 100 55.6 0.0 0.0 --- 0.00 29.665
11/03/2004 4:00 a 56.2 56.2 56.2 58.0 55.5 100 56.2 0.0 4.0 SE 0.00 29.683
11/03/2004 4:30 a 58.4 58.4 58.4 58.6 58.1 82 52.9 1.0 7.0 SSE 0.00 29.710
11/03/2004 5:00 a 57.2 57.2 57.2 58.1 56.4 78 50.4 1.0 6.0 SE 0.00 29.749
11/03/2004 5:30 a 56.0 56.0 56.0 56.4 55.3 75 48.2 1.0 8.0 SE 0.00 29.789
11/03/2004 6:00 a 54.3 54.3 54.3 55.3 53.2 74 46.2 1.0 6.0 SE 0.00 29.819
11/03/2004 6:30 a 52.6 52.6 52.6 53.2 52.0 70 43.1 1.0 6.0 SE 0.00 29.872
11/03/2004 7:00 a 51.1 51.1 51.1 51.9 50.5 69 41.3 1.0 6.0 S 0.00 29.889
11/03/2004 7:30 a 50.4 50.4 50.4 51.3 49.8 65 39.1 1.0 8.0 SSE 0.00 29.896
11/03/2004 8:00 a 52.3 52.3 52.3 53.3 51.3 59 38.4 1.0 13.0 SE 0.00 29.909
11/03/2004 8:30 a 53.0 53.0 53.0 53.7 52.4 59 39.1 2.0 8.0 SE 0.00 29.917
11/03/2004 9:00 a 52.9 52.9 52.9 53.3 52.5 56 37.6 2.0 6.0 SE 0.00 29.926
11/03/2004 9:30 a 52.1 52.1 52.1 52.9 51.8 57 37.3 1.0 5.0 SE 0.00 29.944
11/03/2004 10:00 a 52.2 52.2 52.2 52.6 52.1 55 36.5 2.0 8.0 SE 0.00 29.939
11/03/2004 10:30 a 53.8 53.8 53.8 56.2 52.6 51 36.1 2.0 8.0 SSW 0.00 29.953
11/03/2004 11:00 a 54.2 54.2 54.2 55.2 53.9 52 37.0 2.0 7.0 S 0.00 29.964
11/03/2004 11:30 a 54.4 54.4 54.4 55.1 54.1 50 36.2 2.0 7.0 SE 0.00 29.966
11/03/2004 12:00 p 62.7 62.7 62.7 67.7 54.6 37 36.1 1.0 4.0 S 0.00 29.964
11/03/2004 12:30 p 57.3 57.3 57.3 60.7 56.2 44 35.6 2.0 7.0 SE 0.00 29.952
11/03/2004 1:00 p 56.5 56.5 56.5 57.1 56.1 40 32.5 1.0 9.0 SSE 0.00 29.961
11/03/2004 1:30 p 56.8 56.8 56.8 57.1 56.6 36 30.2 1.0 7.0 SSE 0.00 29.961
11/03/2004 2:00 p 56.7 56.7 56.7 56.9 56.6 38 31.4 1.0 8.0 SE 0.00 29.977
11/03/2004 2:30 p 56.4 56.4 56.4 56.6 56.2 38 31.1 1.0 5.0 SE 0.00 29.984
11/03/2004 3:00 p 56.1 56.1 56.1 56.5 55.8 37 30.2 1.0 4.0 SE 0.00 29.983
11/03/2004 3:30 p 55.6 55.6 55.6 55.8 55.4 35 28.4 1.0 5.0 ESE 0.00 29.997
11/03/2004 4:00 p 55.1 55.1 55.1 55.7 54.4 37 29.3 1.0 5.0 SE 0.00 29.998
11/03/2004 4:30 p 53.7 53.7 53.7 54.4 52.9 40 30.0 0.0 3.0 SE 0.00 30.017
11/03/2004 5:00 p 51.8 51.8 51.8 52.9 50.7 45 31.2 0.0 4.0 SE 0.00 30.026
11/03/2004 5:30 p 50.2 50.2 50.2 50.7 49.9 47 30.8 0.0 3.0 SE 0.00 30.038
11/03/2004 6:00 p 48.8 48.8 48.8 49.9 48.1 52 32.0 0.0 2.0 NE 0.00 30.050
11/03/2004 6:30 p 47.6 47.6 47.6 48.2 46.7 55 32.2 0.0 0.0 --- 0.00 30.060
11/03/2004 7:00 p 46.6 46.6 46.6 46.7 46.4 58 32.6 0.0 1.0 --- 0.00 30.065
11/03/2004 7:30 p 46.4 46.4 46.4 46.7 45.8 58 32.4 0.0 2.0 ESE 0.00 30.071
11/03/2004 8:00 p 46.0 46.0 46.0 46.2 45.8 57 31.6 0.0 2.0 ESE 0.00 30.056
11/03/2004 8:30 p 45.8 45.8 45.8 46.1 44.9 59 32.3 0.0 3.0 ESE 0.00 30.059
11/03/2004 9:00 p 44.5 44.5 44.5 45.0 44.0 58 30.7 0.0 3.0 ESE 0.00 30.064
11/03/2004 9:30 p 44.5 44.5 44.5 45.0 44.2 60 31.5 0.0 2.0 SE 0.00 30.075
11/03/2004 10:00 p 44.4 44.4 44.4 45.1 43.2 64 33.0 0.0 0.0 --- 0.00 30.083
11/03/2004 10:30 p 42.1 42.1 42.1 43.2 41.2 69 32.7 0.0 0.0 --- 0.00 30.087
11/03/2004 11:00 p 40.1 40.1 40.1 41.2 39.3 75 32.8 0.0 0.0 --- 0.00 30.078
11/03/2004 11:30 p 38.7 38.7 38.7 39.3 38.1 78 32.4 0.0 0.0 --- 0.00 30.073
11/04/2004 12:00 a 37.7 37.7 37.7 38.1 37.3 81 32.4 0.0 0.0 --- 0.00 30.081
11/04/2004 12:30 a 37.3 37.3 37.3 37.8 37.0 76 30.4 0.0 0.0 --- 0.00 30.067
11/04/2004 1:00 a 38.0 38.0 38.0 38.7 37.6 77 31.4 0.0 0.0 --- 0.00 30.067
11/04/2004 1:30 a 37.9 37.9 37.9 38.3 37.6 76 31.0 0.0 0.0 --- 0.00 30.067
11/04/2004 2:00 a 37.4 37.4 37.4 37.7 36.8 78 31.2 0.0 0.0 --- 0.00 30.073
11/04/2004 2:30 a 35.9 35.9 35.9 36.8 34.9 81 30.6 0.0 0.0 --- 0.00 30.061
11/04/2004 3:00 a 34.4 34.4 34.4 34.9 34.0 86 30.7 0.0 0.0 --- 0.00 30.063
11/04/2004 3:30 a 33.5 33.5 33.5 34.0 32.8 88 30.3 0.0 0.0 --- 0.00 30.051
11/04/2004 4:00 a 32.6 32.6 32.6 32.8 32.5 90 30.0 0.0 0.0 --- 0.00 30.049
11/04/2004 4:30 a 32.4 32.4 32.4 32.6 32.1 91 30.1 0.0 0.0 --- 0.00 30.037
11/04/2004 5:00 a 32.1 32.1 32.1 32.3 31.9 91 29.8 0.0 0.0 --- 0.00 30.014
11/04/2004 5:30 a 33.0 33.0 33.0 33.8 32.3 88 29.8 0.0 0.0 --- 0.00 30.007
11/04/2004 6:00 a 34.0 34.0 34.0 34.2 33.8 87 30.5 0.0 0.0 --- 0.00 30.016
11/04/2004 6:30 a 34.4 34.4 34.4 35.1 34.0 83 29.8 0.0 0.0 --- 0.00 30.005
11/04/2004 7:00 a 35.6 35.6 35.6 36.0 35.1 79 29.7 0.0 0.0 --- 0.00 30.001
11/04/2004 7:30 a 36.7 36.7 36.7 37.5 36.0 76 29.9 0.0 0.0 --- 0.00 30.001
11/04/2004 8:00 a 38.6 38.6 38.6 39.8 37.5 73 30.7 0.0 0.0 --- 0.00 30.005
11/04/2004 8:30 a 40.6 40.6 40.6 41.5 39.8 69 31.2 0.0 0.0 --- 0.00 29.991
11/04/2004 9:00 a 42.3 42.3 42.3 43.2 41.5 67 32.1 0.0 0.0 --- 0.00 29.969
11/04/2004 9:30 a 44.2 44.2 44.2 45.0 43.2 64 32.8 0.0 0.0 --- 0.00 29.962
11/04/2004 10:00 a 45.7 45.7 45.7 46.5 45.0 64 34.2 0.0 1.0 SE 0.00 29.959
11/04/2004 10:30 a 46.7 46.7 46.7 46.9 46.5 63 34.8 0.0 1.0 SE 0.00 29.933
11/04/2004 11:00 a 47.0 47.0 47.0 47.2 46.8 64 35.5 0.0 1.0 SE 0.00 29.905
11/04/2004 11:30 a 47.3 47.3 47.3 47.5 47.2 65 36.1 0.0 1.0 SE 0.00 29.872
11/04/2004 12:00 p 47.8 47.8 47.8 47.9 47.4 65 36.6 0.0 0.0 --- 0.00 29.843
11/04/2004 12:30 p 47.1 47.1 47.1 47.8 45.6 90 44.3 0.0 0.0 --- 0.00 29.821
11/04/2004 1:00 p 44.4 44.4 44.4 45.5 43.9 100 44.4 0.0 0.0 --- 0.03 29.811
11/04/2004 1:30 p 44.0 44.0 44.0 44.1 43.9 100 44.0 0.0 0.0 --- 0.07 29.799
11/04/2004 2:00 p 43.8 43.8 43.8 43.9 43.7 100 43.8 0.0 0.0 --- 0.06 29.770
11/04/2004 2:30 p 43.6 43.6 43.6 43.8 43.5 100 43.6 0.0 0.0 --- 0.04 29.745
11/04/2004 3:00 p 43.5 43.5 43.5 43.7 43.4 100 43.5 0.0 0.0 --- 0.08 29.707
11/04/2004 3:30 p 43.8 43.8 43.8 44.0 43.6 100 43.8 0.0 0.0 --- 0.05 29.676
11/04/2004 4:00 p 44.2 44.2 44.2 44.4 43.9 100 44.2 0.0 0.0 --- 0.04 29.642
11/04/2004 4:30 p 44.7 44.7 44.7 45.1 44.4 100 44.7 0.0 0.0 --- 0.04 29.606
11/04/2004 5:00 p 45.3 45.3 45.3 45.6 45.0 100 45.3 0.0 0.0 --- 0.02 29.568
11/04/2004 5:30 p 46.0 46.0 46.0 46.4 45.6 100 46.0 0.0 0.0 --- 0.05 29.549
11/04/2004 6:00 p 46.7 46.7 46.7 46.9 46.4 100 46.7 0.0 0.0 --- 0.06 29.531
11/04/2004 6:30 p 47.1 47.1 47.1 47.6 46.9 100 47.1 0.0 0.0 --- 0.12 29.518
11/04/2004 7:00 p 47.5 47.5 47.5 47.6 47.4 100 47.5 0.0 0.0 --- 0.08 29.501
11/04/2004 7:30 p 47.6 47.6 47.6 47.7 47.5 100 47.6 0.0 0.0 --- 0.08 29.467
11/04/2004 8:00 p 47.8 47.8 47.8 48.0 47.7 100 47.8 0.0 0.0 --- 0.03 29.429
11/04/2004 8:30 p 48.0 48.0 48.0 48.1 47.9 100 48.0 0.0 1.0 SE 0.04 29.416
11/04/2004 9:00 p 48.1 48.1 48.1 48.2 48.0 100 48.1 0.0 1.0 --- 0.01 29.408
11/04/2004 9:30 p 48.0 48.0 48.0 48.2 47.8 100 48.0 0.0 0.0 --- 0.00 29.377
11/04/2004 10:00 p 47.5 47.5 47.5 47.8 46.8 100 47.5 0.0 0.0 --- 0.01 29.341
11/04/2004 10:30 p 46.6 46.6 46.6 47.3 46.1 100 46.6 0.0 1.0 SE 0.00 29.343
11/04/2004 11:00 p 47.4 47.4 47.4 47.5 47.3 100 47.4 0.0 1.0 SE 0.00 29.338
11/04/2004 11:30 p 47.1 47.1 47.1 47.3 47.0 100 47.1 0.0 2.0 SE 0.00 29.333
11/05/2004 12:00 a 47.1 47.1 47.1 47.2 47.1 100 47.1 0.0 2.0 SE 0.00 29.338
11/05/2004 12:30 a 47.2 47.2 47.2 47.3 46.9 100 47.2 0.0 3.0 SSE 0.00 29.335
11/05/2004 1:00 a 47.0 47.0 47.0 47.3 46.7 100 47.0 0.0 2.0 ENE 0.00 29.330
11/05/2004 1:30 a 47.3 47.3 47.3 47.5 46.7 100 47.3 0.0 2.0 S 0.00 29.337
11/05/2004 2:00 a 46.3 46.3 46.3 46.7 46.0 100 46.3 0.0 3.0 S 0.00 29.336
11/05/2004 2:30 a 45.9 45.9 45.9 46.1 45.6 100 45.9 0.0 4.0 SE 0.00 29.339
11/05/2004 3:00 a 45.8 45.8 45.8 45.9 45.6 100 45.8 1.0 4.0 S 0.00 29.346
11/05/2004 3:30 a 45.6 45.6 45.6 45.8 45.5 100 45.6 1.0 7.0 S 0.00 29.362
11/05/2004 4:00 a 45.7 45.7 45.7 46.1 45.5 100 45.7 1.0 6.0 SSE 0.00 29.371
11/05/2004 4:30 a 46.0 46.0 46.0 46.2 45.8 100 46.0 1.0 11.0 S 0.00 29.394
11/05/2004 5:00 a 46.2 46.2 46.2 46.4 46.0 100 46.2 2.0 8.0 SE 0.00 29.417
11/05/2004 5:30 a 45.9 45.9 45.9 46.1 45.6 100 45.9 2.0 12.0 SE 0.00 29.439
11/05/2004 6:00 a 45.4 45.4 45.4 45.7 45.1 100 45.4 2.0 12.0 SE 0.00 29.458
11/05/2004 6:30 a 45.3 45.3 45.3 45.5 45.1 100 45.3 3.0 14.0 SE 0.00 29.479
11/05/2004 7:00 a 45.3 45.3 45.3 46.4 44.7 99 45.0 2.0 11.0 SE 0.00 29.497
11/05/2004 7:30 a 45.8 45.8 45.8 47.3 45.1 87 42.2 1.0 7.0 SE 0.00 29.516
11/05/2004 8:00 a 48.9 48.9 48.9 51.2 47.0 64 37.3 2.0 8.0 SE 0.00 29.520
11/05/2004 8:30 a 49.4 49.4 49.4 51.0 48.9 63 37.3 2.0 9.0 SE 0.00 29.523
11/05/2004 9:00 a 48.9 48.9 48.9 49.1 48.8 59 35.2 2.0 8.0 SE 0.00 29.527
11/05/2004 9:30 a 49.5 49.5 49.5 50.7 49.0 53 33.1 2.0 12.0 SE 0.00 29.533
11/05/2004 10:00 a 51.3 51.3 51.3 51.7 50.7 50 33.3 2.0 11.0 SE 0.00 29.541
11/05/2004 10:30 a 52.3 52.3 52.3 53.6 51.4 47 32.7 2.0 12.0 SE 0.00 29.548
11/05/2004 11:30 a 53.6 53.6 53.6 54.9 52.7 41 30.5 3.0 13.0 SE 0.00 29.551
11/05/2004 12:00 p 57.5 57.5 57.5 60.5 53.4 37 31.5 3.0 12.0 SE 0.00 29.549
11/05/2004 12:30 p 54.0 54.0 54.0 56.4 52.6 38 29.0 3.0 17.0 SE 0.00 29.550
11/05/2004 1:00 p 53.8 53.8 53.8 54.4 53.1 39 29.4 3.0 14.0 SE 0.00 29.554
11/05/2004 1:30 p 53.0 53.0 53.0 54.1 52.3 39 28.7 4.0 15.0 SE 0.00 29.551
11/05/2004 2:00 p 54.3 54.3 54.3 54.8 53.8 38 29.3 3.0 10.0 SE 0.00 29.552
11/05/2004 2:30 p 54.6 54.6 54.6 55.1 54.3 37 28.9 2.0 11.0 SE 0.00 29.561
11/05/2004 3:00 p 54.3 54.3 54.3 54.6 53.7 35 27.3 2.0 15.0 SE 0.00 29.574
11/05/2004 3:30 p 53.2 53.2 53.2 53.7 52.8 36 27.0 3.0 11.0 SE 0.00 29.599
11/05/2004 4:00 p 52.1 52.1 52.1 52.8 51.7 36 26.0 3.0 16.0 SE 0.00 29.607
11/05/2004 4:30 p 51.0 51.0 51.0 51.7 50.1 38 26.3 2.0 12.0 SSE 0.00 29.622
11/05/2004 5:00 p 50.0 50.0 50.0 50.5 49.3 37 24.8 2.0 11.0 SE 0.00 29.633
11/05/2004 5:30 p 48.3 48.3 48.3 49.4 47.2 44 27.4 0.0 4.0 SE 0.00 29.648
11/05/2004 6:00 p 46.3 46.3 46.3 47.3 45.8 47 27.2 0.0 2.0 N 0.00 29.659
11/05/2004 6:30 p 45.0 45.0 45.0 45.8 43.8 54 29.4 0.0 2.0 N 0.00 29.674
11/05/2004 7:00 p 43.6 43.6 43.6 44.7 43.2 48 25.2 0.0 4.0 E 0.00 29.681
11/05/2004 7:30 p 44.1 44.1 44.1 44.7 43.2 52 27.6 0.0 2.0 SSW 0.00 29.693
11/05/2004 8:00 p 43.2 43.2 43.2 43.6 42.8 60 30.3 0.0 3.0 SSW 0.00 29.698
11/05/2004 8:30 p 42.0 42.0 42.0 42.8 41.2 58 28.3 0.0 0.0 --- 0.00 29.712
11/05/2004 9:00 p 40.2 40.2 40.2 41.2 39.8 63 28.6 0.0 0.0 --- 0.00 29.723
11/05/2004 9:30 p 40.0 40.0 40.0 40.2 39.8 63 28.4 0.0 1.0 --- 0.00 29.729
11/05/2004 10:00 p 39.7 39.7 39.7 39.8 39.6 65 28.9 0.0 0.0 --- 0.00 29.745
11/05/2004 10:30 p 38.9 38.9 38.9 39.6 38.0 68 29.3 0.0 0.0 --- 0.00 29.750
11/05/2004 11:00 p 37.2 37.2 37.2 38.0 36.5 75 30.0 0.0 0.0 --- 0.00 29.747
11/05/2004 11:30 p 35.7 35.7 35.7 36.5 35.2 75 28.6 0.0 0.0 --- 0.00 29.755
11/06/2004 12:00 a 35.2 35.2 35.2 35.3 35.1 76 28.4 0.0 0.0 --- 0.00 29.755
11/06/2004 12:30 a 34.8 34.8 34.8 35.2 34.4 81 29.6 0.0 0.0 --- 0.00 29.760
11/06/2004 1:00 a 34.4 34.4 34.4 34.6 34.1 83 29.8 0.0 0.0 --- 0.00 29.755
11/06/2004 1:30 a 34.0 34.0 34.0 34.1 33.8 84 29.7 0.0 0.0 --- 0.00 29.756
11/06/2004 2:00 a 34.2 34.2 34.2 34.7 33.8 80 28.7 0.0 0.0 --- 0.00 29.754
11/06/2004 2:30 a 35.1 35.1 35.1 35.7 34.6 78 28.9 0.0 0.0 --- 0.00 29.760
11/06/2004 3:00 a 35.2 35.2 35.2 35.5 34.8 82 30.3 0.0 0.0 --- 0.00 29.759
11/06/2004 3:30 a 34.7 34.7 34.7 35.1 34.4 81 29.5 0.0 1.0 E 0.00 29.761
11/06/2004 4:00 a 35.2 35.2 35.2 35.3 34.9 80 29.7 0.0 0.0 --- 0.00 29.755
11/06/2004 4:30 a 35.0 35.0 35.0 35.1 34.6 83 30.4 0.0 0.0 --- 0.00 29.752
11/06/2004 5:00 a 34.6 34.6 34.6 35.1 34.3 80 29.1 0.0 0.0 --- 0.00 29.762
11/06/2004 5:30 a 35.0 35.0 35.0 35.1 34.8 80 29.5 0.0 0.0 --- 0.00 29.759
11/06/2004 6:00 a 34.8 34.8 34.8 35.1 34.4 81 29.6 0.0 0.0 --- 0.00 29.755
11/06/2004 6:30 a 34.7 34.7 34.7 34.8 34.5 82 29.8 0.0 0.0 --- 0.00 29.755
11/06/2004 7:00 a 35.9 35.9 35.9 37.5 34.8 78 29.7 0.0 0.0 --- 0.00 29.757
11/06/2004 7:30 a 39.0 39.0 39.0 39.8 37.5 75 31.8 0.0 2.0 N 0.00 29.757
11/06/2004 8:00 a 40.5 40.5 40.5 43.0 39.4 68 30.8 0.0 1.0 --- 0.00 29.752
11/06/2004 8:30 a 43.5 43.5 43.5 44.7 42.8 64 32.1 0.0 2.0 N 0.00 29.754
11/06/2004 9:00 a 45.3 45.3 45.3 45.9 44.7 62 33.1 0.0 3.0 S 0.00 29.747
11/06/2004 9:30 a 46.9 46.9 46.9 48.1 45.9 57 32.5 1.0 3.0 SSW 0.00 29.733
11/06/2004 10:00 a 49.2 49.2 49.2 50.6 48.1 53 32.8 1.0 4.0 SSE 0.00 29.732
11/06/2004 10:30 a 51.7 51.7 51.7 52.2 50.7 51 34.2 1.0 5.0 N 0.00 29.708
11/06/2004 11:00 a 53.0 53.0 53.0 53.7 52.2 45 32.2 1.0 5.0 N 0.00 29.693
11/06/2004 11:30 a 55.1 55.1 55.1 58.1 53.7 40 31.2 1.0 5.0 SSE 0.00 29.675
11/06/2004 12:00 p 65.4 65.4 65.4 68.5 58.2 31 34.0 1.0 5.0 NNW 0.00 29.657
11/06/2004 12:30 p 59.1 59.1 59.1 62.5 58.3 34 30.8 1.0 5.0 SSE 0.00 29.650
11/06/2004 1:00 p 58.5 58.5 58.5 58.6 58.4 33 29.5 1.0 6.0 S 0.00 29.648
11/06/2004 1:30 p 58.3 58.3 58.3 58.5 57.9 35 30.8 1.0 5.0 S 0.00 29.635
11/06/2004 2:00 p 58.6 58.6 58.6 58.9 58.4 35 31.1 1.0 7.0 SSW 0.00 29.627
11/06/2004 2:30 p 58.5 58.5 58.5 59.0 57.7 37 32.3 1.0 5.0 SE 0.00 29.624
11/06/2004 3:00 p 58.1 58.1 58.1 58.4 57.6 38 32.6 1.0 4.0 SSE 0.00 29.618
11/06/2004 3:30 p 58.3 58.3 58.3 58.5 57.7 37 32.2 1.0 6.0 N 0.00 29.620
11/06/2004 4:00 p 57.1 57.1 57.1 57.7 56.4 40 33.0 1.0 4.0 S 0.00 29.621
11/06/2004 4:30 p 55.5 55.5 55.5 56.4 54.3 44 34.0 1.0 4.0 N 0.00 29.626
11/06/2004 5:00 p 53.5 53.5 53.5 54.4 52.2 48 34.3 0.0 2.0 SE 0.00 29.648
11/06/2004 5:30 p 50.6 50.6 50.6 52.2 49.3 53 34.1 0.0 0.0 --- 0.00 29.651
11/06/2004 6:00 p 48.0 48.0 48.0 49.3 46.6 58 33.9 0.0 0.0 --- 0.00 29.661
11/06/2004 6:30 p 45.9 45.9 45.9 46.6 44.6 66 35.2 0.0 0.0 --- 0.00 29.672
11/06/2004 7:00 p 44.3 44.3 44.3 44.8 43.5 72 35.9 0.0 0.0 --- 0.00 29.684
11/06/2004 7:30 p 42.6 42.6 42.6 43.5 41.8 77 35.9 0.0 0.0 --- 0.00 29.692
11/06/2004 8:00 p 41.7 41.7 41.7 41.8 41.4 79 35.7 0.0 0.0 --- 0.00 29.697
11/06/2004 8:30 p 40.9 40.9 40.9 41.5 40.3 80 35.2 0.0 0.0 --- 0.00 29.706
11/06/2004 9:00 p 39.9 39.9 39.9 40.3 39.4 84 35.5 0.0 0.0 --- 0.00 29.708
11/06/2004 9:30 p 39.1 39.1 39.1 39.4 38.9 88 35.9 0.0 0.0 --- 0.00 29.712
11/06/2004 10:00 p 38.8 38.8 38.8 39.1 38.5 89 35.8 0.0 0.0 --- 0.00 29.710
11/06/2004 10:30 p 38.5 38.5 38.5 38.6 38.3 89 35.5 0.0 0.0 --- 0.00 29.708
11/06/2004 11:00 p 38.2 38.2 38.2 38.3 38.0 88 35.0 0.0 0.0 --- 0.00 29.717
11/06/2004 11:30 p 38.1 38.1 38.1 38.2 37.8 89 35.2 0.0 0.0 --- 0.00 29.720
11/07/2004 12:00 a 37.9 37.9 37.9 38.0 37.8 89 35.0 0.0 0.0 --- 0.00 29.723
11/07/2004 12:30 a 38.1 38.1 38.1 38.2 37.9 91 35.7 0.0 0.0 --- 0.00 29.712
11/07/2004 1:00 a 38.9 38.9 38.9 39.4 38.1 88 35.7 0.0 0.0 --- 0.00 29.717
11/07/2004 1:30 a 38.8 38.8 38.8 39.4 38.3 88 35.6 0.0 0.0 --- 0.00 29.718
11/07/2004 2:00 a 39.1 39.1 39.1 39.5 38.7 89 36.1 0.0 0.0 --- 0.00 29.726
11/07/2004 2:30 a 38.7 38.7 38.7 38.9 38.6 87 35.2 0.0 0.0 --- 0.00 29.720
11/07/2004 3:00 a 38.7 38.7 38.7 38.9 38.4 88 35.5 0.0 0.0 --- 0.00 29.721
11/07/2004 3:30 a 38.0 38.0 38.0 38.4 37.5 91 35.6 0.0 0.0 --- 0.00 29.720
11/07/2004 4:00 a 37.2 37.2 37.2 37.5 36.9 92 35.1 0.0 0.0 --- 0.00 29.723
11/07/2004 4:30 a 37.1 37.1 37.1 37.3 36.8 93 35.3 0.0 0.0 --- 0.00 29.723
11/07/2004 5:00 a 36.7 36.7 36.7 36.8 36.4 94 35.1 0.0 0.0 --- 0.00 29.742
11/07/2004 5:30 a 36.1 36.1 36.1 36.4 35.7 96 35.1 0.0 0.0 --- 0.00 29.736
11/07/2004 6:00 a 35.6 35.6 35.6 35.9 35.4 97 34.8 0.0 0.0 --- 0.00 29.744
11/07/2004 6:30 a 35.3 35.3 35.3 35.5 35.1 98 34.8 0.0 0.0 --- 0.00 29.744
11/07/2004 7:00 a 35.3 35.3 35.3 36.0 35.0 98 34.8 0.0 0.0 --- 0.00 29.749
11/07/2004 7:30 a 37.1 37.1 37.1 40.1 35.9 93 35.3 0.0 0.0 --- 0.00 29.758
11/07/2004 8:00 a 47.8 47.8 47.8 53.6 40.1 64 36.2 0.0 0.0 --- 0.00 29.761
11/07/2004 8:30 a 51.0 51.0 51.0 53.5 50.0 65 39.7 0.0 0.0 --- 0.00 29.758
11/07/2004 9:00 a 50.3 50.3 50.3 50.8 50.0 62 37.8 0.0 0.0 --- 0.00 29.756
11/07/2004 9:30 a 51.8 51.8 51.8 52.7 50.8 60 38.4 0.0 0.0 --- 0.00 29.745
11/07/2004 10:00 a 54.0 54.0 54.0 56.5 52.7 56 38.7 0.0 1.0 ESE 0.00 29.735
11/07/2004 10:30 a 58.2 58.2 58.2 58.8 56.6 53 41.2 0.0 0.0 --- 0.00 29.724
11/07/2004 11:00 a 60.2 60.2 60.2 61.4 58.8 50 41.5 0.0 2.0 SE 0.00 29.703
11/07/2004 11:30 a 63.4 63.4 63.4 66.7 61.4 45 41.7 0.0 1.0 NE 0.00 29.683
11/07/2004 12:00 p 73.0 75.0 75.0 77.9 66.8 36 46.3 0.0 3.0 N 0.00 29.667
11/07/2004 12:30 p 67.0 69.3 69.3 73.0 68.4 43 45.9 0.0 4.0 N 0.00 29.651
11/07/2004 1:00 p 67.0 68.6 68.6 68.8 68.4 44 45.8 0.0 3.0 N 0.00 29.632
11/07/2004 1:30 p 67.0 68.9 68.9 69.0 68.7 43 45.5 0.0 5.0 N 0.00 29.623
11/07/2004 2:00 p 67.0 68.6 68.6 68.7 68.4 44 45.8 0.0 3.0 NW 0.00 29.608
11/07/2004 2:30 p 66.0 68.0 68.0 68.4 67.8 45 45.9 0.0 5.0 N 0.00 29.596
11/07/2004 3:00 p 67.7 67.7 67.7 67.9 67.4 45 45.6 0.0 3.0 N 0.00 29.595
11/07/2004 3:30 p 66.9 66.9 66.9 67.4 66.4 47 46.0 0.0 4.0 N 0.00 29.602
11/07/2004 4:00 p 65.7 65.7 65.7 66.4 65.0 50 46.6 0.0 4.0 N 0.00 29.598
11/07/2004 4:30 p 63.8 63.8 63.8 64.9 62.4 54 46.9 0.0 2.0 SSW 0.00 29.601
11/07/2004 5:00 p 61.0 61.0 61.0 62.5 59.8 59 46.6 0.0 0.0 --- 0.00 29.607
11/07/2004 5:30 p 58.8 58.8 58.8 59.8 58.2 61 45.4 0.0 0.0 --- 0.00 29.616
11/07/2004 6:00 p 58.5 58.5 58.5 58.9 57.8 61 45.1 0.0 0.0 --- 0.00 29.619
11/07/2004 6:30 p 56.9 56.9 56.9 57.8 56.1 62 44.0 0.0 0.0 --- 0.00 29.623
11/07/2004 7:00 p 55.0 55.0 55.0 56.1 54.2 66 43.9 0.0 0.0 --- 0.00 29.626
11/07/2004 7:30 p 53.4 53.4 53.4 54.2 52.5 70 43.9 0.0 0.0 --- 0.00 29.624
11/07/2004 8:00 p 52.0 52.0 52.0 52.5 51.6 73 43.6 0.0 0.0 --- 0.00 29.621
11/07/2004 8:30 p 52.0 52.0 52.0 52.3 51.6 71 42.9 0.0 0.0 --- 0.00 29.613
11/07/2004 9:00 p 51.6 51.6 51.6 52.2 51.1 75 43.9 0.0 0.0 --- 0.00 29.616
11/07/2004 9:30 p 50.1 50.1 50.1 51.1 49.6 78 43.5 0.0 0.0 --- 0.00 29.624
11/07/2004 10:00 p 49.0 49.0 49.0 49.6 48.6 77 42.1 0.0 0.0 --- 0.00 29.625
11/07/2004 10:30 p 49.5 49.5 49.5 49.8 48.8 75 41.9 0.0 0.0 --- 0.00 29.625
11/07/2004 11:00 p 48.8 48.8 48.8 49.7 47.9 79 42.6 0.0 0.0 --- 0.00 29.622
11/07/2004 11:30 p 47.9 47.9 47.9 48.2 47.5 78 41.4 0.0 0.0 --- 0.00 29.627
11/08/2004 12:00 a 48.8 48.8 48.8 49.3 48.1 74 40.9 0.0 0.0 --- 0.00 29.632
11/08/2004 12:30 a 50.7 50.7 50.7 53.9 49.2 66 39.8 0.0 5.0 SE 0.00 29.642
11/08/2004 1:00 a 55.1 55.1 55.1 55.3 53.9 57 40.2 2.0 13.0 SE 0.00 29.666
11/08/2004 1:30 a 53.9 53.9 53.9 55.2 52.6 55 38.1 3.0 10.0 SE 0.00 29.698
11/08/2004 2:00 a 51.7 51.7 51.7 52.6 50.4 51 34.2 2.0 11.0 SSE 0.00 29.731
11/08/2004 2:30 a 49.3 49.3 49.3 50.4 48.6 47 29.9 3.0 12.0 SE 0.00 29.749
11/08/2004 3:00 a 47.8 47.8 47.8 48.6 47.3 49 29.6 2.0 7.0 SE 0.00 29.767
11/08/2004 3:30 a 47.2 47.2 47.2 47.4 46.9 49 29.0 3.0 13.0 SE 0.00 29.786
11/08/2004 4:00 a 46.1 46.1 46.1 46.8 45.3 52 29.5 1.0 9.0 SE 0.00 29.799
11/08/2004 4:30 a 45.2 45.2 45.2 45.4 45.0 51 28.2 2.0 8.0 SE 0.00 29.819
11/08/2004 5:00 a 45.0 45.0 45.0 45.5 43.9 55 29.8 2.0 10.0 SE 0.00 29.837
11/08/2004 5:30 a 43.8 43.8 43.8 44.0 43.6 57 29.6 2.0 6.0 SE 0.00 29.854
11/08/2004 6:00 a 43.3 43.3 43.3 43.7 43.0 57 29.1 2.0 10.0 SE 0.00 29.877
11/08/2004 6:30 a 42.9 42.9 42.9 43.2 42.4 55 27.9 2.0 7.0 SE 0.00 29.904
11/08/2004 7:00 a 42.3 42.3 42.3 42.6 41.8 57 28.2 1.0 4.0 SE 0.00 29.928
11/08/2004 7:30 a 41.7 41.7 41.7 41.9 41.4 60 28.9 0.0 3.0 SE 0.00 29.942
11/08/2004 8:00 a 43.2 43.2 43.2 52.0 41.1 42 21.7 1.0 6.0 SE 0.00 29.959
11/08/2004 8:30 a 49.2 49.2 49.2 52.1 47.4 47 29.8 1.0 7.0 SE 0.00 29.964
11/08/2004 9:00 a 47.5 47.5 47.5 48.2 47.0 46 27.8 2.0 8.0 SE 0.00 29.975
11/08/2004 9:30 a 46.9 46.9 46.9 47.4 46.4 48 28.3 1.0 9.0 SE 0.00 29.988
11/08/2004 10:00 a 48.0 48.0 48.0 48.6 46.6 44 27.1 1.0 9.0 SE 0.00 29.992
11/08/2004 10:30 a 49.4 49.4 49.4 50.9 47.9 45 29.0 2.0 8.0 SE 0.00 29.998
11/08/2004 11:00 a 48.3 48.3 48.3 49.2 47.7 47 29.0 1.0 7.0 SE 0.00 29.998
11/08/2004 11:30 a 49.1 49.1 49.1 52.9 48.2 40 25.8 2.0 8.0 SE 0.00 29.987
11/08/2004 12:00 p 58.7 58.7 58.7 62.3 53.0 33 29.7 1.0 6.0 SSE 0.00 29.983
11/08/2004 12:30 p 52.6 52.6 52.6 56.2 51.0 38 27.7 2.0 7.0 SE 0.00 29.979
11/08/2004 1:00 p 52.2 52.2 52.2 53.0 51.1 33 24.0 2.0 7.0 SE 0.00 29.978
11/08/2004 1:30 p 51.8 51.8 51.8 52.5 50.2 33 23.6 2.0 9.0 SE 0.00 29.979
11/08/2004 2:00 p 50.3 50.3 50.3 51.0 49.5 33 22.3 2.0 7.0 SE 0.00 29.985
11/08/2004 2:30 p 49.0 49.0 49.0 49.9 48.4 32 20.4 2.0 8.0 SE 0.00 29.995
11/08/2004 3:00 p 49.4 49.4 49.4 50.2 48.9 31 20.0 3.0 16.0 SE 0.00 30.008
11/08/2004 3:30 p 49.5 49.5 49.5 50.2 48.1 30 19.4 2.0 9.0 SE 0.00 30.018
11/08/2004 4:00 p 47.1 47.1 47.1 48.2 46.5 31 18.0 2.0 9.0 SSW 0.00 30.030
11/08/2004 4:30 p 46.0 46.0 46.0 46.5 45.4 32 17.8 2.0 10.0 SE 0.00 30.049
11/08/2004 5:00 p 44.7 44.7 44.7 45.4 44.1 33 17.4 2.0 7.0 SE 0.00 30.066
11/08/2004 5:30 p 43.6 43.6 43.6 44.1 43.2 33 16.4 2.0 8.0 SE 0.00 30.085
11/08/2004 6:00 p 42.8 42.8 42.8 43.3 42.1 35 17.1 1.0 6.0 SE 0.00 30.101
11/08/2004 6:30 p 41.9 41.9 41.9 42.4 41.4 44 21.6 1.0 6.0 S 0.00 30.125
11/08/2004 7:00 p 40.8 40.8 40.8 41.4 40.2 45 21.1 1.0 5.0 S 0.00 30.133
11/08/2004 7:30 p 39.1 39.1 39.1 40.2 38.4 49 21.6 0.0 2.0 S 0.00 30.142
11/08/2004 8:00 p 37.8 37.8 37.8 38.4 36.4 55 23.1 0.0 2.0 S 0.00 30.148
11/08/2004 8:30 p 35.7 35.7 35.7 36.4 34.7 62 24.0 0.0 0.0 --- 0.00 30.161
11/08/2004 9:00 p 33.4 33.4 33.4 34.7 32.5 65 22.9 0.0 0.0 --- 0.00 30.160
11/08/2004 9:30 p 32.0 32.0 32.0 32.5 31.7 67 22.3 0.0 0.0 --- 0.00 30.167
11/08/2004 10:00 p 32.0 32.0 32.0 32.2 31.8 70 23.3 0.0 0.0 --- 0.00 30.165
11/08/2004 10:30 p 32.8 32.8 32.8 33.3 32.1 68 23.4 0.0 0.0 --- 0.00 30.165
11/08/2004 11:00 p 33.0 33.0 33.0 33.4 32.1 72 25.0 0.0 0.0 --- 0.00 30.171
11/08/2004 11:30 p 31.0 31.0 31.0 32.1 30.2 77 24.6 0.0 0.0 --- 0.00 30.164
11/09/2004 12:00 a 30.0 30.0 30.0 30.4 29.6 76 23.4 0.0 0.0 --- 0.00 30.162
11/09/2004 12:30 a 30.5 30.5 30.5 31.3 30.1 75 23.5 0.0 0.0 --- 0.00 30.162
11/09/2004 1:00 a 32.0 32.0 32.0 32.6 31.3 70 23.3 0.0 0.0 --- 0.00 30.164
11/09/2004 1:30 a 32.9 32.9 32.9 33.2 32.3 71 24.5 0.0 0.0 --- 0.00 30.165
11/09/2004 2:00 a 32.5 32.5 32.5 33.4 32.0 71 24.2 0.0 0.0 --- 0.00 30.180
11/09/2004 2:30 a 34.8 34.8 34.8 35.8 33.4 61 22.7 0.0 2.0 SSE 0.00 30.185
11/09/2004 3:00 a 34.9 34.9 34.9 35.5 34.3 67 25.1 0.0 1.0 SSE 0.00 30.198
11/09/2004 3:30 a 33.5 33.5 33.5 34.4 33.1 67 23.7 0.0 2.0 SSE 0.00 30.205
11/09/2004 4:00 a 33.7 33.7 33.7 33.8 33.3 66 23.6 0.0 0.0 --- 0.00 30.209
11/09/2004 4:30 a 33.8 33.8 33.8 34.2 33.2 66 23.7 0.0 1.0 SSE 0.00 30.216
11/09/2004 5:00 a 32.2 32.2 32.2 33.2 31.4 70 23.5 0.0 1.0 SSE 0.00 30.230
11/09/2004 5:30 a 30.9 30.9 30.9 31.4 30.7 70 22.3 0.0 2.0 ESE 0.00 30.241
11/09/2004 6:00 a 31.6 31.6 31.6 31.9 31.2 72 23.6 0.0 2.0 SW 0.00 30.251
11/09/2004 6:30 a 31.9 31.9 31.9 32.3 31.5 71 23.6 0.0 4.0 SE 0.00 30.266
11/09/2004 7:00 a 31.6 31.6 31.6 32.1 31.1 70 23.0 0.0 3.0 SE 0.00 30.277
11/09/2004 7:30 a 33.3 33.3 33.3 36.4 32.0 61 21.3 1.0 5.0 SE 0.00 30.289
11/09/2004 8:00 a 42.8 42.8 42.8 46.8 36.4 41 20.7 1.0 6.0 SE 0.00 30.297
11/09/2004 8:30 a 41.7 41.7 41.7 47.0 39.2 50 24.4 1.0 5.0 SE 0.00 30.297
11/09/2004 9:00 a 37.7 37.7 37.7 39.1 37.3 52 21.7 2.0 8.0 S 0.00 30.305
11/09/2004 9:30 a 37.7 37.7 37.7 38.2 37.4 50 20.8 3.0 9.0 SE 0.00 30.313
11/09/2004 10:00 a 38.2 38.2 38.2 39.0 38.1 45 18.7 4.0 12.0 SE 0.00 30.322
11/09/2004 10:30 a 39.2 39.2 39.2 40.2 38.7 45 19.7 3.0 11.0 SE 0.00 30.318
11/09/2004 11:00 a 39.6 39.6 39.6 40.3 38.8 42 18.4 3.0 10.0 SE 0.00 30.323
11/09/2004 11:30 a 41.9 41.9 41.9 46.3 40.0 33 14.9 2.0 8.0 SSE 0.00 30.312
11/09/2004 12:00 p 45.1 45.1 45.1 49.0 40.9 37 20.4 2.0 7.0 SSE 0.00 30.303
11/09/2004 12:30 p 42.4 42.4 42.4 42.8 41.9 38 18.6 2.0 8.0 SE 0.00 30.300
11/09/2004 1:00 p 41.8 41.8 41.8 42.1 41.5 34 15.5 3.0 12.0 SE 0.00 30.304
11/09/2004 1:30 p 42.2 42.2 42.2 43.3 41.4 34 15.9 2.0 8.0 SE 0.00 30.303
11/09/2004 2:00 p 42.5 42.5 42.5 43.2 41.8 33 15.4 2.0 9.0 SE 0.00 30.299
11/09/2004 2:30 p 42.1 42.1 42.1 42.9 41.4 34 15.8 2.0 12.0 SE 0.00 30.310
11/09/2004 3:00 p 40.8 40.8 40.8 41.5 40.2 35 15.3 2.0 7.0 SE 0.00 30.312
11/09/2004 3:30 p 40.0 40.0 40.0 41.0 39.7 35 14.6 2.0 9.0 S 0.00 30.318
11/09/2004 4:00 p 39.4 39.4 39.4 39.8 39.2 36 14.7 2.0 6.0 SE 0.00 30.329
11/09/2004 4:30 p 38.3 38.3 38.3 39.2 37.4 38 14.9 1.0 6.0 SE 0.00 30.331
11/09/2004 5:00 p 36.5 36.5 36.5 37.4 36.0 41 15.1 1.0 5.0 SE 0.00 30.348
11/09/2004 5:30 p 35.9 35.9 35.9 36.1 35.5 42 15.1 1.0 5.0 SE 0.00 30.355
11/09/2004 6:00 p 34.8 34.8 34.8 35.5 34.3 47 16.6 0.0 3.0 SSE 0.00 30.363
11/09/2004 6:30 p 34.5 34.5 34.5 34.7 34.3 46 15.9 1.0 4.0 SE 0.00 30.375
11/09/2004 7:00 p 33.9 33.9 33.9 34.5 33.2 50 17.2 1.0 3.0 SE 0.00 30.383
11/09/2004 7:30 p 33.0 33.0 33.0 33.3 32.7 56 19.0 0.0 3.0 SE 0.00 30.387
11/09/2004 8:00 p 32.2 32.2 32.2 32.7 31.5 54 17.4 0.0 3.0 SE 0.00 30.388
11/09/2004 8:30 p 30.2 30.2 30.2 31.5 29.4 65 19.9 0.0 1.0 --- 0.00 30.398
11/09/2004 9:00 p 29.1 29.1 29.1 29.6 28.3 66 19.2 0.0 0.0 --- 0.00 30.402
11/09/2004 9:30 p 27.8 27.8 27.8 28.3 27.2 68 18.6 0.0 0.0 --- 0.00 30.405
11/09/2004 10:00 p 27.1 27.1 27.1 27.2 26.9 70 18.6 0.0 0.0 --- 0.00 30.419
11/09/2004 10:30 p 27.0 27.0 27.0 27.2 26.7 72 19.2 0.0 1.0 --- 0.00 30.420
11/09/2004 11:00 p 26.3 26.3 26.3 26.9 26.0 76 19.8 0.0 0.0 --- 0.00 30.427
11/09/2004 11:30 p 25.3 25.3 25.3 26.0 25.0 78 19.4 0.0 0.0 --- 0.00 30.428
11/10/2004 12:00 a 25.3 25.3 25.3 25.5 25.1 81 20.3 0.0 0.0 --- 0.00 30.428
11/10/2004 12:30 a 22.8 22.8 22.8 25.4 -34.8 58 10.3 0.0 0.0 --- 0.00 30.434
11/10/2004 1:00 a -- -- -- -- -50.9 100 -- 0.0 0.0 --- 0.00 30.436
11/10/2004 1:30 a -- -- -- -- -- 100 -- 0.0 0.0 --- 0.00 30.440
11/10/2004 2:00 a -- -- -- -- -- 100 -- 0.0 0.0 --- 0.00 30.440
11/10/2004 2:30 a -- -- -- -- -- 100 -- 0.0 0.0 --- 0.00 30.429
11/10/2004 3:00 a -- -- -- -- -- 100 -- 0.0 0.0 --- 0.00 30.433
11/10/2004 3:30 a -- -- -- -- -- 100 -- 0.0 0.0 --- 0.00 30.439
11/10/2004 4:00 a -- -- -- -- -- 66 -- 0.0 0.0 --- 0.00 30.445
11/10/2004 4:30 a -- -- -- -- -- -- -- 0.0 0.0 --- 0.00 30.445
11/10/2004 5:00 a -- -- -- -- -- -- -- 0.0 0.0 --- 0.00 30.453
11/10/2004 5:30 a -- -- -- -- -- -- -- 0.0 0.0 --- 0.00 30.462
11/10/2004 6:00 a -- -- -- -- -- 99 -- 0.0 0.0 --- 0.00 30.467
11/10/2004 6:30 a -- -- -- -- -- 100 -- 0.0 0.0 --- 0.00 30.480
11/10/2004 7:00 a -- -- -- -- -- 100 -- 0.0 0.0 --- 0.00 30.482
11/10/2004 7:30 a -- -- -- -- -- -- -- 0.0 0.0 --- 0.00 30.484
11/10/2004 8:00 a -- -- -- -- -- -- -- 0.0 0.0 --- 0.00 30.478
11/10/2004 8:30 a -- -- -- -- -- -- -- 0.0 0.0 --- 0.00 30.489
11/10/2004 9:00 a -- -- -- -- -- -- -- 0.0 0.0 --- 0.00 30.498
11/10/2004 9:30 a -- -- -- -- -- -- -- 0.0 0.0 --- 0.00 30.497
11/10/2004 10:00 a -- -- -- -- -- -- -- 0.0 3.0 SE 0.00 30.491
11/10/2004 10:30 a -- -- -- -- -- -- -- 0.0 3.0 SE 0.00 30.480
11/10/2004 11:00 a -- -- -- -- -- -- -- 0.0 2.0 N 0.00 30.472
11/11/2004 6:30 a -- 35.9 35.9 36.9 35.4 -- -- 0.0 0.0 --- 0.00 30.213
11/11/2004 7:00 a -- 35.6 35.6 36.0 35.2 -- -- 0.0 0.0 --- 0.00 30.209
11/11/2004 7:30 a -- 37.5 37.5 39.3 35.7 -- -- 0.0 0.0 --- 0.00 30.203
11/11/2004 8:00 a -- 39.8 39.8 40.7 39.0 -- -- 0.0 0.0 --- 0.00 30.205
11/11/2004 8:30 a -- 42.7 42.7 43.9 40.6 -- -- 0.0 0.0 --- 0.00 30.203
11/11/2004 9:00 a -- 46.7 46.7 50.0 43.9 -- -- 0.0 3.0 N 0.00 30.203
11/11/2004 9:30 a -- 50.4 50.4 51.2 49.6 -- -- 0.0 3.0 SSE 0.00 30.205
11/11/2004 10:00 a -- 51.7 51.7 52.5 51.0 -- -- 0.0 4.0 SSE 0.00 30.194
11/11/2004 10:30 a -- 54.4 54.4 55.4 52.6 -- -- 0.0 3.0 NNE 0.00 30.182
11/11/2004 11:00 a -- 54.9 54.9 56.5 53.8 -- -- 0.0 3.0 SW 0.00 30.174
11/11/2004 11:30 a -- 56.6 56.6 57.5 55.9 -- -- 1.0 3.0 NNW 0.00 30.158
11/11/2004 12:00 p -- 57.5 57.5 58.3 56.4 -- -- 0.0 3.0 NNW 0.00 30.133
11/11/2004 12:30 p -- 57.8 57.8 58.4 56.8 -- -- 1.0 4.0 NNW 0.00 30.119
11/11/2004 1:00 p -- 58.6 58.6 59.1 58.2 -- -- 1.0 4.0 SSE 0.00 30.105
11/11/2004 1:30 p -- 58.7 58.7 59.3 58.1 -- -- 1.0 4.0 SE 0.00 30.102
11/11/2004 2:00 p -- 58.3 58.3 58.8 57.8 -- -- 0.0 4.0 SE 0.00 30.085
11/11/2004 2:30 p -- 58.0 58.0 58.4 57.7 -- -- 0.0 4.0 NE 0.00 30.082
11/11/2004 3:00 p -- 57.0 57.0 57.8 56.6 -- -- 0.0 2.0 N 0.00 30.074
11/11/2004 3:30 p -- 56.3 56.3 56.8 55.6 -- -- 0.0 4.0 NNE 0.00 30.071
11/11/2004 4:00 p -- 55.0 55.0 55.7 54.2 -- -- 0.0 1.0 N 0.00 30.074
11/11/2004 4:30 p -- 53.4 53.4 54.2 52.5 -- -- 0.0 0.0 --- 0.00 30.086
11/11/2004 5:00 p -- 51.2 51.2 52.5 49.7 -- -- 0.0 0.0 --- 0.00 30.091
11/11/2004 5:30 p -- 49.1 49.1 50.2 47.4 -- -- 0.0 0.0 --- 0.00 30.090
11/11/2004 6:00 p -- 47.2 47.2 47.6 46.7 -- -- 0.0 0.0 --- 0.00 30.100
11/11/2004 6:30 p -- 45.6 45.6 46.7 44.8 -- -- 0.0 0.0 --- 0.00 30.111
11/11/2004 7:00 p -- 44.3 44.3 46.4 43.0 -- -- 0.0 0.0 --- 0.00 30.106
11/11/2004 7:30 p -- 44.7 44.7 45.7 43.4 -- -- 0.0 0.0 --- 0.00 30.114
11/11/2004 8:00 p -- 43.1 43.1 44.5 42.1 -- -- 0.0 0.0 --- 0.00 30.103
11/11/2004 8:30 p -- 42.3 42.3 43.6 41.5 -- -- 0.0 0.0 --- 0.00 30.104
11/11/2004 9:00 p -- 42.8 42.8 44.5 41.7 -- -- 0.0 0.0 --- 0.00 30.100
11/11/2004 9:30 p -- 41.2 41.2 41.7 40.7 -- -- 0.0 0.0 --- 0.00 30.108
11/11/2004 10:00 p -- 40.6 40.6 41.0 40.1 -- -- 0.0 0.0 --- 0.00 30.104
11/11/2004 10:30 p -- 40.5 40.5 41.1 40.2 -- -- 0.0 0.0 --- 0.00 30.097
11/11/2004 11:00 p -- 40.3 40.3 41.0 39.4 -- -- 0.0 0.0 --- 0.00 30.101
11/11/2004 11:30 p -- 41.5 41.5 42.6 41.0 -- -- 0.0 0.0 --- 0.00 30.103
11/12/2004 12:00 a -- 45.1 45.1 46.5 42.5 -- -- 0.0 1.0 N 0.00 30.112
11/12/2004 12:30 a -- 46.6 46.6 46.9 46.3 -- -- 0.0 1.0 W 0.00 30.115
11/12/2004 1:00 a -- 46.3 46.3 46.5 46.1 -- -- 0.0 1.0 S 0.00 30.125
11/12/2004 1:30 a -- 46.2 46.2 46.5 45.7 -- -- 0.0 2.0 S 0.00 30.132
11/12/2004 2:00 a -- 45.8 45.8 45.9 45.7 -- -- 0.0 2.0 S 0.00 30.130
11/12/2004 2:30 a -- 45.9 45.9 46.0 45.8 -- -- 0.0 2.0 SSE 0.00 30.126
11/12/2004 3:00 a -- 45.9 45.9 46.2 45.7 -- -- 0.0 1.0 SSE 0.00 30.137
11/12/2004 3:30 a -- 45.6 45.6 45.8 45.3 -- -- 0.0 2.0 SSW 0.00 30.134
11/12/2004 4:00 a -- 45.4 45.4 45.6 45.2 -- -- 0.0 3.0 SSW 0.00 30.131
11/12/2004 4:30 a -- 45.1 45.1 45.3 44.9 -- -- 0.0 3.0 SSE 0.00 30.145
11/12/2004 5:00 a -- 44.0 44.0 45.0 43.3 -- -- 0.0 3.0 SSW 0.00 30.147
11/12/2004 5:30 a -- 42.7 42.7 43.4 42.1 -- -- 0.0 3.0 SSW 0.00 30.149
11/12/2004 6:00 a -- 41.7 41.7 42.4 41.0 -- -- 0.0 3.0 SSW 0.01 30.144
11/12/2004 6:30 a -- 40.9 40.9 41.4 40.5 -- -- 0.0 2.0 SSW 0.01 30.151
11/12/2004 7:00 a -- 40.0 40.0 40.6 39.6 -- -- 0.0 2.0 SSW 0.02 30.152
11/12/2004 7:30 a -- 39.2 39.2 39.7 38.7 -- -- 0.0 2.0 SW 0.01 30.155
11/12/2004 8:00 a -- 39.3 39.3 40.1 38.8 -- -- 0.0 3.0 SW 0.00 30.180
11/12/2004 8:30 a -- 40.2 40.2 40.9 39.7 -- -- 0.0 1.0 SSE 0.00 30.179
11/12/2004 9:00 a -- 40.2 40.2 40.7 39.9 -- -- 0.0 2.0 WSW 0.00 30.179
11/12/2004 9:30 a -- 40.4 40.4 40.6 39.9 -- -- 0.0 2.0 WSW 0.00 30.180
11/12/2004 10:00 a -- 40.1 40.1 40.6 39.8 -- -- 0.0 2.0 WSW 0.00 30.176
11/12/2004 10:30 a -- 39.5 39.5 40.1 39.1 -- -- 0.0 3.0 WSW 0.02 30.178
11/12/2004 11:00 a -- 39.1 39.1 39.5 38.7 -- -- 0.0 5.0 WSW 0.00 30.180
11/12/2004 11:30 a -- 39.2 39.2 39.6 38.8 -- -- 0.0 3.0 WSW 0.00 30.166
11/12/2004 12:00 p -- 39.2 39.2 39.6 38.9 -- -- 0.0 3.0 WNW 0.00 30.156
11/12/2004 12:30 p -- 39.4 39.4 39.8 39.0 -- -- 0.0 3.0 SE 0.00 30.156
11/12/2004 1:00 p -- 39.1 39.1 39.4 38.8 -- -- 1.0 3.0 WSW 0.00 30.155
11/12/2004 1:30 p -- 39.0 39.0 39.3 38.6 -- -- 0.0 4.0 W 0.00 30.147
11/12/2004 2:00 p -- 38.7 38.7 39.1 38.4 -- -- 1.0 3.0 SSW 0.00 30.142
11/12/2004 2:30 p -- 39.0 39.0 39.3 38.6 -- -- 1.0 4.0 WSW 0.00 30.149
11/12/2004 3:00 p -- 38.8 38.8 39.0 38.6 -- -- 1.0 3.0 WSW 0.00 30.143
11/12/2004 3:30 p -- 38.7 38.7 38.9 38.4 -- -- 1.0 3.0 WNW 0.00 30.138
11/12/2004 4:00 p -- 38.4 38.4 38.6 38.1 -- -- 1.0 4.0 SSW 0.00 30.137
11/12/2004 4:30 p -- 38.1 38.1 38.3 37.9 -- -- 1.0 3.0 WNW 0.00 30.144
11/12/2004 5:00 p -- 37.8 37.8 38.0 37.6 -- -- 1.0 4.0 W 0.00 30.158
11/12/2004 5:30 p -- 37.8 37.8 38.1 37.7 -- -- 1.0 3.0 WNW 0.00 30.167
11/12/2004 6:00 p -- 37.7 37.7 37.9 37.2 -- -- 0.0 3.0 SW 0.00 30.167
11/12/2004 6:30 p -- 37.1 37.1 37.4 36.8 -- -- 1.0 3.0 W 0.00 30.171
11/12/2004 7:00 p -- 36.8 36.8 37.1 36.7 -- -- 1.0 3.0 W 0.00 30.172
11/12/2004 7:30 p -- 36.9 36.9 37.8 36.5 -- -- 1.0 3.0 W 0.00 30.177
11/12/2004 8:00 p -- 37.3 37.3 38.7 36.7 -- -- 0.0 3.0 W 0.00 30.173
11/12/2004 8:30 p -- 36.9 36.9 37.5 36.5 -- -- 1.0 3.0 SSW 0.00 30.176
11/12/2004 9:00 p -- 36.7 36.7 37.4 36.4 -- -- 0.0 3.0 SW 0.00 30.171
11/12/2004 9:30 p -- 36.6 36.6 36.8 36.4 -- -- 1.0 3.0 WNW 0.01 30.174
11/12/2004 10:00 p -- 36.6 36.6 36.8 36.3 -- -- 0.0 2.0 S 0.00 30.170
11/12/2004 10:30 p -- 36.6 36.6 36.8 36.4 -- -- 0.0 3.0 SSW 0.00 30.170
11/12/2004 11:00 p -- 36.7 36.7 37.0 36.3 -- -- 0.0 5.0 SSW 0.00 30.178
11/12/2004 11:30 p -- 36.9 36.9 37.2 36.7 -- -- 0.0 2.0 W 0.00 30.178
11/13/2004 12:00 a -- 36.5 36.5 36.9 36.2 -- -- 0.0 4.0 SSW 0.00 30.170
11/13/2004 12:30 a -- 36.5 36.5 36.7 36.2 -- -- 0.0 3.0 WSW 0.00 30.164
11/13/2004 1:00 a -- 36.2 36.2 36.5 36.0 -- -- 0.0 3.0 SW 0.00 30.172
11/13/2004 1:30 a -- 36.0 36.0 36.3 35.7 -- -- 1.0 3.0 SW 0.00 30.173
11/13/2004 2:00 a -- 35.5 35.5 35.8 35.1 -- -- 1.0 4.0 WSW 0.00 30.173
11/13/2004 2:30 a -- 35.1 35.1 35.3 34.8 -- -- 1.0 4.0 WSW 0.00 30.169
11/13/2004 3:00 a -- 34.8 34.8 35.2 34.6 -- -- 1.0 6.0 SW 0.00 30.171
11/13/2004 3:30 a -- 34.7 34.7 35.0 34.5 -- -- 1.0 3.0 SW 0.00 30.184
11/13/2004 4:00 a -- 34.4 34.4 34.6 34.2 -- -- 1.0 5.0 SW 0.00 30.190
11/13/2004 4:30 a -- 34.3 34.3 34.6 34.1 -- -- 1.0 4.0 SW 0.00 30.206
11/13/2004 5:00 a -- 34.3 34.3 34.5 34.0 -- -- 1.0 4.0 WSW 0.00 30.209
11/13/2004 5:30 a -- 34.3 34.3 34.6 34.0 -- -- 0.0 3.0 SW 0.00 30.208
11/13/2004 6:00 a -- 34.2 34.2 34.4 34.0 -- -- 1.0 4.0 SW 0.00 30.213
11/13/2004 6:30 a -- 34.0 34.0 34.2 33.8 -- -- 1.0 5.0 SW 0.01 30.223
11/13/2004 7:00 a -- 33.5 33.5 33.9 33.3 -- -- 1.0 5.0 SW 0.00 30.230
11/13/2004 7:30 a -- 33.4 33.4 33.6 33.2 -- -- 1.0 6.0 SSW 0.00 30.247
11/13/2004 8:00 a -- 33.9 33.9 34.5 33.3 -- -- 1.0 6.0 SW 0.00 30.259
11/13/2004 8:30 a -- 35.6 35.6 36.4 34.4 -- -- 2.0 8.0 SW 0.00 30.268
11/13/2004 9:00 a -- 37.0 37.0 37.5 36.3 -- -- 2.0 8.0 SSW 0.00 30.272
11/13/2004 9:30 a -- 38.1 38.1 38.7 37.4 -- -- 2.0 8.0 SW 0.00 30.283
11/13/2004 10:00 a -- 39.5 39.5 40.2 38.6 -- -- 2.0 8.0 WSW 0.00 30.289
11/13/2004 10:30 a -- 40.8 40.8 42.0 39.8 -- -- 2.0 10.0 SW 0.00 30.291
11/13/2004 11:00 a -- 42.1 42.1 43.2 41.4 -- -- 2.0 6.0 SSW 0.00 30.281
11/13/2004 11:30 a -- 43.6 43.6 44.8 42.4 -- -- 2.0 8.0 SW 0.00 30.287
11/13/2004 12:00 p -- 44.7 44.7 45.5 43.7 -- -- 2.0 8.0 SSW 0.00 30.276
11/13/2004 12:30 p -- 44.2 44.2 45.4 43.5 -- -- 3.0 11.0 S 0.00 30.280
11/13/2004 1:00 p -- 45.0 45.0 46.2 44.3 -- -- 2.0 11.0 WSW 0.00 30.281
11/13/2004 1:30 p -- 45.6 45.6 46.3 45.0 -- -- 2.0 10.0 S 0.00 30.280
11/13/2004 2:00 p -- 45.5 45.5 46.0 44.6 -- -- 2.0 7.0 SE 0.00 30.285
11/13/2004 2:30 p -- 45.2 45.2 45.9 44.7 -- -- 2.0 8.0 SSW 0.00 30.294
11/13/2004 3:00 p -- 44.6 44.6 45.2 44.2 -- -- 2.0 9.0 SE 0.00 30.301
11/13/2004 3:30 p -- 44.0 44.0 44.8 43.5 -- -- 2.0 8.0 SSE 0.00 30.312
11/13/2004 4:00 p -- 43.1 43.1 43.5 42.7 -- -- 1.0 6.0 S 0.00 30.317
11/13/2004 4:30 p -- 42.3 42.3 42.7 41.7 -- -- 2.0 8.0 SSE 0.00 30.335
11/13/2004 5:00 p -- 41.2 41.2 41.7 40.5 -- -- 1.0 5.0 S 0.00 30.348
11/13/2004 5:30 p -- 40.2 40.2 40.7 39.9 -- -- 1.0 4.0 SE 0.00 30.363
11/13/2004 6:00 p -- 39.8 39.8 40.2 39.5 -- -- 1.0 6.0 SSE 0.00 30.375
11/13/2004 6:30 p -- 39.2 39.2 39.7 38.7 -- -- 1.0 5.0 S 0.00 30.387
11/13/2004 7:00 p -- 38.5 38.5 38.9 38.1 -- -- 1.0 5.0 SSE 0.00 30.397
11/13/2004 7:30 p -- 38.0 38.0 38.4 37.5 -- -- 1.0 5.0 SE 0.00 30.412
11/13/2004 8:00 p -- 37.2 37.2 37.6 36.9 -- -- 1.0 5.0 SSE 0.00 30.429
11/13/2004 8:30 p -- 36.7 36.7 37.0 36.3 -- -- 1.0 4.0 SE 0.00 30.430
11/13/2004 9:00 p -- 36.1 36.1 36.6 35.4 -- -- 1.0 4.0 SE 0.00 30.437
11/13/2004 9:30 p -- 35.5 35.5 36.0 35.1 -- -- 0.0 3.0 SE 0.00 30.443
11/13/2004 10:00 p -- 34.8 34.8 35.3 34.3 -- -- 0.0 4.0 SE 0.00 30.447
11/13/2004 10:30 p -- 34.1 34.1 34.9 33.4 -- -- 0.0 2.0 SSE 0.00 30.448
11/13/2004 11:00 p -- 34.1 34.1 34.4 33.9 -- -- 0.0 4.0 SSE 0.00 30.457
11/13/2004 11:30 p -- 33.7 33.7 34.1 33.4 -- -- 0.0 5.0 SE 0.00 30.467
11/14/2004 12:00 a -- 33.4 33.4 33.6 33.1 -- -- 1.0 4.0 S 0.00 30.473
11/14/2004 12:30 a -- 33.2 33.2 33.5 32.8 -- -- 1.0 5.0 SSE 0.00 30.484
11/14/2004 1:00 a -- 32.8 32.8 33.1 32.5 -- -- 0.0 4.0 S 0.00 30.494
11/14/2004 1:30 a -- 32.3 32.3 32.6 31.6 -- -- 0.0 3.0 SSE 0.00 30.502
11/14/2004 2:00 a -- 31.1 31.1 32.2 30.4 -- -- 0.0 2.0 SE 0.00 30.510
11/14/2004 2:30 a -- 30.9 30.9 31.4 30.2 -- -- 0.0 4.0 SE 0.00 30.519
11/14/2004 3:00 a -- 30.2 30.2 30.9 29.8 -- -- 0.0 0.0 --- 0.00 30.517
11/14/2004 3:30 a -- 29.7 29.7 30.3 29.2 -- -- 0.0 0.0 --- 0.00 30.527
11/14/2004 4:00 a -- 29.1 29.1 29.6 28.7 -- -- 0.0 0.0 --- 0.00 30.529
11/14/2004 4:30 a -- 28.4 28.4 29.1 27.9 -- -- 0.0 0.0 --- 0.00 30.539
11/14/2004 5:00 a -- 27.6 27.6 28.1 27.2 -- -- 0.0 0.0 --- 0.00 30.549
11/14/2004 5:30 a -- 27.3 27.3 27.6 26.9 -- -- 0.0 0.0 --- 0.00 30.553
11/14/2004 6:00 a -- 26.9 26.9 27.6 26.4 -- -- 0.0 0.0 --- 0.00 30.562
11/14/2004 6:30 a -- 27.1 27.1 27.5 26.7 -- -- 0.0 0.0 --- 0.00 30.571
11/14/2004 7:00 a -- 27.7 27.7 28.1 27.4 -- -- 0.0 0.0 --- 0.00 30.583
11/14/2004 7:30 a -- 28.7 28.7 29.8 28.0 -- -- 0.0 1.0 SE 0.00 30.590
11/14/2004 8:00 a -- 32.2 32.2 34.2 29.9 -- -- 0.0 2.0 SE 0.00 30.596
11/14/2004 8:30 a -- 35.1 35.1 35.9 34.1 -- -- 1.0 6.0 SE 0.00 30.593
11/14/2004 9:00 a -- 36.6 36.6 37.4 35.9 -- -- 2.0 6.0 SE 0.00 30.593
11/14/2004 9:30 a -- 38.7 38.7 40.1 37.4 -- -- 2.0 9.0 SE 0.00 30.590
11/14/2004 10:00 a -- 40.9 40.9 42.2 39.9 -- -- 2.0 7.0 SE 0.00 30.592
11/14/2004 10:30 a -- 43.3 43.3 44.5 42.2 -- -- 2.0 6.0 SSE 0.00 30.581
11/14/2004 11:00 a -- 45.7 45.7 47.2 43.8 -- -- 2.0 7.0 SE 0.00 30.567
11/14/2004 11:30 a -- 46.8 46.8 48.0 46.1 -- -- 2.0 10.0 SSW 0.00 30.547
11/14/2004 12:00 p -- 48.4 48.4 49.2 47.6 -- -- 2.0 7.0 SE 0.00 30.529
11/14/2004 12:30 p -- 49.5 49.5 50.2 48.6 -- -- 2.0 8.0 SE 0.00 30.520
11/14/2004 1:00 p -- 50.1 50.1 50.9 49.5 -- -- 2.0 8.0 SE 0.00 30.499
11/14/2004 1:30 p -- 50.2 50.2 51.0 49.6 -- -- 2.0 12.0 SE 0.00 30.489
11/14/2004 2:00 p -- 50.5 50.5 50.8 50.1 -- -- 2.0 7.0 SE 0.00 30.477
11/14/2004 2:30 p -- 50.6 50.6 51.2 50.3 -- -- 2.0 10.0 SE 0.00 30.471
11/14/2004 3:00 p -- 50.3 50.3 50.7 50.1 -- -- 2.0 9.0 SE 0.00 30.466
11/14/2004 3:30 p -- 49.9 49.9 50.3 49.6 -- -- 2.0 7.0 SE 0.00 30.464
11/14/2004 4:00 p -- 49.1 49.1 49.7 48.3 -- -- 1.0 6.0 SE 0.00 30.458
11/14/2004 4:30 p -- 48.1 48.1 48.9 47.5 -- -- 1.0 9.0 ESE 0.00 30.458
11/14/2004 5:00 p -- 47.0 47.0 47.5 46.6 -- -- 1.0 5.0 ESE 0.00 30.462
11/14/2004 5:30 p -- 46.0 46.0 46.9 45.0 -- -- 0.0 3.0 SSE 0.00 30.467
11/14/2004 6:00 p -- 45.1 45.1 45.8 43.9 -- -- 1.0 5.0 SE 0.00 30.464
11/14/2004 6:30 p -- 44.4 44.4 45.3 43.2 -- -- 0.0 4.0 SE 0.00 30.464
11/14/2004 7:00 p -- 44.0 44.0 44.8 43.1 -- -- 0.0 3.0 SE 0.00 30.464
11/14/2004 7:30 p -- 43.9 43.9 44.5 42.6 -- -- 1.0 4.0 SE 0.00 30.459
11/14/2004 8:00 p -- 41.7 41.7 42.5 40.3 -- -- 0.0 2.0 SE 0.00 30.460
11/14/2004 8:30 p -- 40.2 40.2 40.9 39.2 -- -- 0.0 2.0 SE 0.00 30.457
11/14/2004 9:00 p -- 39.6 39.6 41.4 38.8 -- -- 0.0 2.0 SE 0.00 30.445
11/14/2004 9:30 p -- 39.5 39.5 41.2 38.3 -- -- 0.0 2.0 SE 0.00 30.444
11/14/2004 10:00 p -- 38.4 38.4 39.8 37.5 -- -- 0.0 2.0 SE 0.00 30.443
11/14/2004 10:30 p -- 38.5 38.5 39.5 37.6 -- -- 0.0 3.0 SE 0.00 30.435
11/14/2004 11:00 p -- 38.1 38.1 39.0 37.4 -- -- 0.0 2.0 SE 0.00 30.427
11/14/2004 11:30 p -- 36.3 36.3 37.4 35.7 -- -- 0.0 2.0 ESE 0.00 30.430
11/15/2004 12:00 a -- 35.1 35.1 35.8 34.6 -- -- 0.0 2.0 ESE 0.00 30.432
11/15/2004 12:30 a -- 34.3 34.3 34.9 33.6 -- -- 0.0 1.0 ESE 0.00 30.430
11/15/2004 1:00 a -- 33.8 33.8 34.1 33.3 -- -- 0.0 3.0 ESE 0.00 30.427
11/15/2004 1:30 a -- 33.4 33.4 33.8 32.9 -- -- 0.0 2.0 ESE 0.00 30.428
11/15/2004 2:00 a -- 32.8 32.8 33.2 32.5 -- -- 0.0 0.0 --- 0.00 30.427
11/15/2004 2:30 a -- 32.6 32.6 33.0 32.0 -- -- 0.0 0.0 --- 0.00 30.415
11/15/2004 3:00 a -- 32.4 32.4 32.8 32.0 -- -- 0.0 2.0 ESE 0.00 30.410
11/15/2004 3:30 a -- 32.1 32.1 32.6 31.7 -- -- 0.0 2.0 ESE 0.00 30.412
11/15/2004 4:00 a -- 33.1 33.1 34.5 32.2 -- -- 0.0 2.0 ESE 0.00 30.404
11/15/2004 4:30 a -- 32.4 32.4 33.1 32.0 -- -- 0.0 0.0 --- 0.00 30.407
11/15/2004 5:00 a -- 32.2 32.2 32.8 32.0 -- -- 0.0 2.0 SE 0.00 30.412
11/15/2004 5:30 a -- 31.7 31.7 32.3 31.2 -- -- 0.0 2.0 SE 0.00 30.413
11/15/2004 6:00 a -- 30.6 30.6 31.5 30.1 -- -- 0.0 0.0 --- 0.00 30.413
11/15/2004 6:30 a -- 30.8 30.8 31.1 30.4 -- -- 0.0 1.0 SE 0.00 30.414
11/15/2004 7:00 a -- 30.9 30.9 31.5 30.4 -- -- 0.0 2.0 SE 0.00 30.420
11/15/2004 7:30 a -- 31.4 31.4 32.6 30.9 -- -- 0.0 0.0 --- 0.00 30.418
11/15/2004 8:00 a -- 34.5 34.5 36.3 32.5 -- -- 0.0 2.0 SE 0.00 30.425
11/15/2004 8:30 a -- 38.4 38.4 41.2 36.4 -- -- 0.0 0.0 --- 0.00 30.418
11/15/2004 9:00 a -- 42.7 42.7 44.5 41.1 -- -- 0.0 2.0 SE 0.00 30.416
11/15/2004 9:30 a -- 45.7 45.7 47.0 44.5 -- -- 0.0 4.0 SE 0.00 30.406
11/15/2004 10:00 a -- 48.3 48.3 49.7 47.0 -- -- 1.0 6.0 SE 0.00 30.403
11/15/2004 10:30 a -- 50.8 50.8 52.0 49.6 -- -- 1.0 6.0 SE 0.00 30.390
11/15/2004 11:00 a -- 53.1 53.1 54.7 51.8 -- -- 2.0 9.0 SE 0.00 30.370
11/15/2004 11:30 a -- 55.0 55.0 56.0 54.2 -- -- 1.0 4.0 SE 0.00 30.349
11/15/2004 12:00 p -- 56.7 56.7 57.7 55.8 -- -- 1.0 4.0 SE 0.00 30.330
11/15/2004 12:30 p -- 58.1 58.1 59.1 57.3 -- -- 1.0 5.0 SE 0.00 30.322
11/15/2004 1:00 p -- 59.7 59.7 60.5 58.8 -- -- 1.0 5.0 SE 0.00 30.315
11/15/2004 1:30 p -- 60.9 60.9 61.3 60.4 -- -- 1.0 6.0 SE 0.00 30.316
11/15/2004 2:00 p -- 61.0 61.0 61.3 60.7 -- -- 2.0 6.0 SE 0.00 30.307
11/15/2004 2:30 p -- 61.1 61.1 61.5 60.7 -- -- 2.0 7.0 SE 0.00 30.302
11/15/2004 3:00 p -- 61.4 61.4 61.6 61.1 -- -- 2.0 7.0 SE 0.00 30.300
11/15/2004 3:30 p -- 60.9 60.9 61.7 60.2 -- -- 1.0 5.0 SE 0.00 30.301
11/15/2004 4:00 p -- 59.2 59.2 60.5 57.4 -- -- 0.0 6.0 SE 0.00 30.296
11/15/2004 4:30 p -- 57.6 57.6 58.1 57.0 -- -- 0.0 4.0 SE 0.00 30.302
11/15/2004 5:00 p -- 55.0 55.0 57.1 52.6 -- -- 0.0 3.0 SE 0.00 30.302
11/15/2004 5:30 p -- 51.6 51.6 52.7 50.2 -- -- 0.0 1.0 SE 0.00 30.313
11/15/2004 6:00 p -- 49.0 49.0 50.5 47.3 -- -- 0.0 2.0 SE 0.00 30.312
11/15/2004 6:30 p -- 46.5 46.5 47.3 45.9 -- -- 0.0 0.0 --- 0.00 30.304
11/15/2004 7:00 p -- 46.3 46.3 47.2 45.2 -- -- 0.0 2.0 SE 0.00 30.306
11/15/2004 7:30 p -- 45.5 45.5 46.0 44.5 -- -- 0.0 2.0 SE 0.00 30.305
11/15/2004 8:00 p -- 45.1 45.1 46.0 44.3 -- -- 0.0 2.0 SE 0.00 30.300
11/15/2004 8:30 p -- 44.5 44.5 45.8 43.1 -- -- 0.0 2.0 SE 0.00 30.303
11/15/2004 9:00 p -- 41.8 41.8 43.2 40.9 -- -- 0.0 0.0 --- 0.00 30.293
11/15/2004 9:30 p -- 40.3 40.3 40.9 39.9 -- -- 0.0 0.0 --- 0.00 30.293
11/15/2004 10:00 p -- 39.4 39.4 40.4 38.2 -- -- 0.0 0.0 --- 0.00 30.283
11/15/2004 10:30 p -- 38.6 38.6 39.2 37.2 -- -- 0.0 1.0 SE 0.00 30.272
11/15/2004 11:00 p -- 37.2 37.2 37.7 36.7 -- -- 0.0 0.0 --- 0.00 30.274
11/15/2004 11:30 p -- 36.2 36.2 37.3 35.4 -- -- 0.0 0.0 --- 0.00 30.275
11/16/2004 12:00 a -- 35.6 35.6 36.0 34.9 -- -- 0.0 0.0 --- 0.00 30.273
11/16/2004 12:30 a -- 34.6 34.6 35.0 34.0 -- -- 0.0 2.0 SE 0.00 30.266
11/16/2004 1:00 a -- 34.2 34.2 35.0 33.1 -- -- 0.0 2.0 ESE 0.00 30.271
11/16/2004 1:30 a -- 34.8 34.8 35.3 34.2 -- -- 0.0 1.0 ESE 0.00 30.264
11/16/2004 2:00 a -- 34.4 34.4 35.0 33.6 -- -- 0.0 2.0 E 0.00 30.260
11/16/2004 2:30 a -- 35.0 35.0 35.3 34.4 -- -- 0.0 2.0 E 0.00 30.249
11/16/2004 3:00 a -- 35.4 35.4 36.1 34.8 -- -- 0.0 2.0 E 0.00 30.242
11/16/2004 3:30 a -- 35.1 35.1 36.1 34.3 -- -- 0.0 2.0 E 0.00 30.249
11/16/2004 4:00 a -- 34.7 34.7 38.8 33.5 -- -- 0.0 0.0 --- 0.00 30.245
11/16/2004 4:30 a -- 36.3 36.3 38.3 35.1 -- -- 0.0 2.0 E 0.00 30.242
11/16/2004 5:00 a -- 38.0 38.0 38.8 36.5 -- -- 0.0 0.0 --- 0.00 30.244
11/16/2004 5:30 a -- 37.5 37.5 38.5 36.6 -- -- 0.0 0.0 --- 0.00 30.246
11/16/2004 6:00 a -- 36.5 36.5 37.7 35.3 -- -- 0.0 0.0 --- 0.00 30.254
11/16/2004 6:30 a -- 35.5 35.5 36.2 34.8 -- -- 0.0 0.0 --- 0.00 30.261
11/16/2004 7:00 a -- 36.6 36.6 37.4 36.1 -- -- 0.0 0.0 --- 0.00 30.263
11/16/2004 7:30 a -- 38.2 38.2 39.1 37.3 -- -- 0.0 0.0 --- 0.00 30.262
11/16/2004 8:00 a -- 40.0 40.0 41.2 38.9 -- -- 0.0 0.0 --- 0.00 30.271
11/16/2004 8:30 a -- 42.2 42.2 43.6 40.6 -- -- 0.0 0.0 --- 0.00 30.261
11/16/2004 9:00 a -- 46.0 46.0 48.1 43.5 -- -- 0.0 0.0 --- 0.00 30.259
11/16/2004 9:30 a -- 50.0 50.0 51.8 47.8 -- -- 0.0 0.0 --- 0.00 30.261
11/16/2004 10:00 a -- 52.5 52.5 54.0 51.0 -- -- 0.0 0.0 --- 0.00 30.254
11/16/2004 10:30 a -- 54.0 54.0 55.2 53.2 -- -- 0.0 2.0 ESE 0.00 30.250
11/16/2004 11:00 a -- 57.1 57.1 58.6 55.1 -- -- 0.0 5.0 SE 0.00 30.235
11/16/2004 11:30 a -- 58.1 58.1 58.7 57.6 -- -- 0.0 2.0 E 0.00 30.224
11/16/2004 12:00 p -- 58.1 58.1 58.8 57.7 -- -- 0.0 2.0 NE 0.00 30.209
11/16/2004 12:30 p -- 58.9 58.9 59.2 58.5 -- -- 0.0 3.0 ESE 0.00 30.198
11/16/2004 1:00 p -- 58.3 58.3 59.2 57.5 -- -- 0.0 4.0 ESE 0.00 30.192
11/16/2004 1:30 p -- 57.4 57.4 57.9 56.9 -- -- 0.0 6.0 SE 0.00 30.184
11/16/2004 2:00 p -- 57.0 57.0 57.8 56.1 -- -- 0.0 5.0 SE 0.00 30.173
11/16/2004 2:30 p -- 56.4 56.4 56.8 56.0 -- -- 0.0 4.0 SE 0.00 30.169
11/16/2004 3:00 p -- 55.9 55.9 56.6 55.5 -- -- 0.0 6.0 SE 0.00 30.167
11/16/2004 3:30 p -- 55.4 55.4 55.7 54.6 -- -- 0.0 5.0 ESE 0.00 30.162
11/16/2004 4:00 p -- 53.9 53.9 54.8 52.8 -- -- 0.0 4.0 SE 0.00 30.156
11/16/2004 4:30 p -- 51.7 51.7 53.1 50.4 -- -- 0.0 0.0 --- 0.00 30.161
11/16/2004 5:00 p -- 49.0 49.0 50.5 47.3 -- -- 0.0 0.0 --- 0.00 30.167
11/16/2004 5:30 p -- 45.8 45.8 47.3 45.2 -- -- 0.0 0.0 --- 0.00 30.166
11/16/2004 6:00 p -- 44.6 44.6 45.9 43.6 -- -- 0.0 0.0 --- 0.00 30.161
11/16/2004 6:30 p -- 43.9 43.9 44.2 43.6 -- -- 0.0 1.0 --- 0.00 30.164
11/16/2004 7:00 p -- 44.6 44.6 45.3 43.7 -- -- 0.0 0.0 --- 0.00 30.164
11/16/2004 7:30 p -- 44.9 44.9 45.1 44.7 -- -- 0.0 0.0 --- 0.00 30.160
11/16/2004 8:00 p -- 44.9 44.9 45.2 44.7 -- -- 0.0 0.0 --- 0.00 30.152
11/16/2004 8:30 p -- 44.0 44.0 45.3 43.2 -- -- 0.0 0.0 --- 0.00 30.156
11/16/2004 9:00 p -- 42.6 42.6 44.5 41.3 -- -- 0.0 0.0 --- 0.00 30.158
11/16/2004 9:30 p -- 41.1 41.1 42.8 39.6 -- -- 0.0 0.0 --- 0.00 30.157
11/16/2004 10:00 p -- 39.3 39.3 40.0 38.3 -- -- 0.0 2.0 ESE 0.00 30.164
11/16/2004 10:30 p -- 38.5 38.5 39.0 37.9 -- -- 0.0 0.0 --- 0.00 30.161
11/16/2004 11:00 p -- 38.0 38.0 38.5 36.7 -- -- 0.0 0.0 --- 0.00 30.161
11/16/2004 11:30 p -- 36.9 36.9 37.5 36.2 -- -- 0.0 0.0 --- 0.00 30.159
11/17/2004 12:00 a -- 36.6 36.6 37.3 35.9 -- -- 0.0 0.0 --- 0.00 30.162
11/17/2004 12:30 a -- 35.6 35.6 36.0 35.0 -- -- 0.0 0.0 --- 0.00 30.154
11/17/2004 1:00 a -- 35.2 35.2 35.5 34.8 -- -- 0.0 0.0 --- 0.00 30.157
11/17/2004 1:30 a -- 34.6 34.6 35.0 34.2 -- -- 0.0 0.0 --- 0.00 30.161
11/17/2004 2:00 a -- 34.1 34.1 34.8 33.7 -- -- 0.0 0.0 --- 0.00 30.163
11/17/2004 2:30 a -- 33.8 33.8 34.1 33.4 -- -- 0.0 0.0 --- 0.00 30.166
11/17/2004 3:00 a -- 33.3 33.3 33.9 32.5 -- -- 0.0 0.0 --- 0.00 30.161
11/17/2004 3:30 a -- 32.9 32.9 33.4 32.4 -- -- 0.0 0.0 --- 0.00 30.168
11/17/2004 4:00 a -- 32.7 32.7 33.1 32.4 -- -- 0.0 0.0 --- 0.00 30.167
11/17/2004 4:30 a -- 32.3 32.3 32.8 31.9 -- -- 0.0 0.0 --- 0.00 30.171
11/17/2004 5:00 a -- 32.2 32.2 32.4 31.9 -- -- 0.0 0.0 --- 0.00 30.173
11/17/2004 5:30 a -- 32.0 32.0 32.5 31.4 -- -- 0.0 0.0 --- 0.00 30.177
11/17/2004 6:00 a -- 31.6 31.6 33.4 31.0 -- -- 0.0 0.0 --- 0.00 30.182
11/17/2004 6:30 a -- 31.9 31.9 33.1 31.1 -- -- 0.0 0.0 --- 0.00 30.191
11/17/2004 7:00 a -- 31.7 31.7 32.1 31.3 -- -- 0.0 0.0 --- 0.00 30.187
11/17/2004 7:30 a -- 32.3 32.3 33.2 31.7 -- -- 0.0 0.0 --- 0.00 30.191
11/17/2004 8:00 a -- 35.4 35.4 37.9 33.2 -- -- 0.0 0.0 --- 0.00 30.194
11/17/2004 8:30 a -- 39.5 39.5 42.1 37.4 -- -- 0.0 0.0 --- 0.00 30.190
11/17/2004 9:00 a -- 44.6 44.6 47.2 42.1 -- -- 0.0 0.0 --- 0.00 30.195
11/17/2004 9:30 a -- 49.2 49.2 50.6 47.2 -- -- 0.0 0.0 --- 0.00 30.195
11/17/2004 10:00 a -- 51.6 51.6 52.8 50.6 -- -- 0.0 0.0 --- 0.00 30.198
11/17/2004 10:30 a -- 53.7 53.7 55.0 52.7 -- -- 0.0 0.0 --- 0.00 30.190
11/17/2004 11:00 a -- 55.6 55.6 56.9 54.7 -- -- 0.0 2.0 ESE 0.00 30.183
11/17/2004 11:30 a -- 57.0 57.0 57.8 56.3 -- -- 0.0 2.0 N 0.00 30.170
11/17/2004 12:00 p -- 57.8 57.8 58.6 56.9 -- -- 0.0 3.0 N 0.00 30.158
11/17/2004 12:30 p -- 58.2 58.2 58.7 57.8 -- -- 0.0 4.0 SE 0.00 30.153
11/17/2004 1:00 p -- 58.6 58.6 59.2 58.0 -- -- 0.0 4.0 SE 0.00 30.145
11/17/2004 1:30 p -- 58.7 58.7 59.0 58.1 -- -- 0.0 3.0 ESE 0.00 30.139
11/17/2004 2:00 p -- 58.4 58.4 58.8 57.9 -- -- 0.0 3.0 E 0.00 30.130
11/17/2004 2:30 p -- 57.8 57.8 58.3 57.4 -- -- 0.0 3.0 ENE 0.00 30.127
11/17/2004 3:00 p -- 57.5 57.5 57.8 57.0 -- -- 0.0 1.0 --- 0.00 30.129
11/17/2004 3:30 p -- 56.7 56.7 57.3 55.8 -- -- 0.0 0.0 --- 0.00 30.129
11/17/2004 4:00 p -- 55.1 55.1 56.4 54.0 -- -- 0.0 0.0 --- 0.00 30.132
11/17/2004 4:30 p -- 53.0 53.0 54.0 51.4 -- -- 0.0 0.0 --- 0.00 30.131
11/17/2004 5:00 p -- 50.0 50.0 51.4 49.0 -- -- 0.0 0.0 --- 0.00 30.131
11/17/2004 5:30 p -- 47.9 47.9 49.0 47.1 -- -- 0.0 0.0 --- 0.00 30.135
11/17/2004 6:00 p -- 46.2 46.2 47.1 45.6 -- -- 0.0 0.0 --- 0.00 30.140
11/17/2004 6:30 p -- 44.7 44.7 45.8 43.3 -- -- 0.0 0.0 --- 0.00 30.141
11/17/2004 7:00 p -- 43.5 43.5 44.1 43.0 -- -- 0.0 0.0 --- 0.00 30.137
11/17/2004 7:30 p -- 43.8 43.8 44.0 43.1 -- -- 0.0 0.0 --- 0.00 30.141
11/17/2004 8:00 p -- 44.5 44.5 44.9 43.9 -- -- 0.0 0.0 --- 0.00 30.142
11/17/2004 8:30 p -- 44.2 44.2 45.0 43.3 -- -- 0.0 0.0 --- 0.00 30.134
11/17/2004 9:00 p -- 42.8 42.8 43.4 41.8 -- -- 0.0 0.0 --- 0.00 30.131
11/17/2004 9:30 p -- 41.3 41.3 42.3 40.3 -- -- 0.0 0.0 --- 0.00 30.131
11/17/2004 10:00 p -- 40.1 40.1 40.6 39.7 -- -- 0.0 0.0 --- 0.00 30.127
11/17/2004 10:30 p -- 39.6 39.6 40.1 38.9 -- -- 0.0 0.0 --- 0.00 30.121
11/17/2004 11:00 p -- 38.9 38.9 39.5 38.6 -- -- 0.0 0.0 --- 0.00 30.121
11/17/2004 11:30 p -- 38.9 38.9 39.2 38.6 -- -- 0.0 0.0 --- 0.00 30.117
11/18/2004 12:00 a -- 38.8 38.8 39.1 38.4 -- -- 0.0 0.0 --- 0.00 30.110
11/18/2004 12:30 a -- 38.9 38.9 39.4 38.3 -- -- 0.0 0.0 --- 0.00 30.108
11/18/2004 1:00 a -- 38.2 38.2 38.7 37.6 -- -- 0.0 0.0 --- 0.00 30.100
11/18/2004 1:30 a -- 38.2 38.2 38.5 37.7 -- -- 0.0 0.0 --- 0.00 30.096
11/18/2004 2:00 a -- 37.7 37.7 38.3 37.2 -- -- 0.0 0.0 --- 0.00 30.092
11/18/2004 2:30 a -- 37.1 37.1 37.3 36.7 -- -- 0.0 0.0 --- 0.00 30.096
11/18/2004 3:00 a -- 36.9 36.9 37.5 36.5 -- -- 0.0 0.0 --- 0.00 30.089
11/18/2004 3:30 a -- 38.7 38.7 39.2 37.5 -- -- 0.0 0.0 --- 0.00 30.093
11/18/2004 4:00 a -- 39.6 39.6 40.7 38.9 -- -- 0.0 0.0 --- 0.00 30.087
11/18/2004 4:30 a -- 40.9 40.9 41.2 40.6 -- -- 0.0 0.0 --- 0.00 30.081
11/18/2004 5:00 a -- 41.1 41.1 41.5 40.3 -- -- 0.0 0.0 --- 0.00 30.067
11/18/2004 5:30 a -- 39.8 39.8 40.4 38.9 -- -- 0.0 0.0 --- 0.00 30.065
11/18/2004 6:00 a -- 38.4 38.4 39.3 38.0 -- -- 0.0 0.0 --- 0.00 30.065
11/18/2004 6:30 a -- 38.4 38.4 39.6 37.6 -- -- 0.0 0.0 --- 0.00 30.080
11/18/2004 7:00 a -- 39.9 39.9 40.9 38.6 -- -- 0.0 0.0 --- 0.00 30.082
11/18/2004 7:30 a -- 41.8 41.8 42.6 40.9 -- -- 0.0 0.0 --- 0.00 30.088
11/18/2004 8:00 a -- 43.3 43.3 44.0 42.3 -- -- 0.0 0.0 --- 0.00 30.085
11/18/2004 8:30 a -- 45.1 45.1 46.1 44.0 -- -- 0.0 0.0 --- 0.00 30.093
11/18/2004 9:00 a -- 46.5 46.5 47.4 45.9 -- -- 0.0 0.0 --- 0.00 30.085
11/18/2004 9:30 a -- 48.4 48.4 51.0 47.2 -- -- 0.0 0.0 --- 0.00 30.071
11/18/2004 10:00 a -- 53.1 53.1 54.5 51.0 -- -- 0.0 0.0 --- 0.00 30.074
11/18/2004 10:30 a -- 55.1 55.1 55.8 54.4 -- -- 0.0 0.0 --- 0.00 30.060
11/18/2004 11:00 a -- 56.2 56.2 57.5 55.5 -- -- 0.0 0.0 --- 0.00 30.044
11/18/2004 11:30 a -- 57.7 57.7 58.4 57.1 -- -- 0.0 0.0 --- 0.00 30.029
11/18/2004 12:00 p -- 58.2 58.2 58.9 57.0 -- -- 0.0 0.0 --- 0.00 30.010
11/18/2004 12:30 p -- 58.1 58.1 58.6 57.4 -- -- 0.0 0.0 --- 0.00 30.004
11/18/2004 1:00 p -- 57.9 57.9 58.5 57.4 -- -- 0.0 0.0 --- 0.00 29.993
11/18/2004 1:30 p -- 57.7 57.7 58.3 57.2 -- -- 0.0 0.0 --- 0.00 29.989
11/18/2004 2:00 p -- 57.2 57.2 57.5 56.9 -- -- 0.0 0.0 --- 0.00 29.976
11/18/2004 2:30 p -- 57.9 57.9 59.0 57.3 -- -- 0.0 0.0 --- 0.00 29.969
11/18/2004 3:00 p -- 58.3 58.3 59.0 57.5 -- -- 0.0 0.0 --- 0.00 29.973
11/18/2004 3:30 p -- 57.9 57.9 58.2 57.3 -- -- 0.0 0.0 --- 0.00 29.974
11/18/2004 4:00 p -- 56.6 56.6 57.3 56.2 -- -- 0.0 0.0 --- 0.00 29.976
11/18/2004 4:30 p -- 56.1 56.1 56.6 55.0 -- -- 0.0 0.0 --- 0.00 29.976
11/18/2004 5:00 p -- 54.2 54.2 55.0 53.7 -- -- 0.0 0.0 --- 0.00 29.978
11/18/2004 5:30 p -- 53.6 53.6 54.0 53.2 -- -- 0.0 0.0 --- 0.00 29.981
11/18/2004 6:00 p -- 54.1 54.1 54.4 53.8 -- -- 0.0 0.0 --- 0.00 29.986
11/18/2004 6:30 p -- 54.4 54.4 54.9 53.9 -- -- 0.0 0.0 --- 0.00 29.987
11/18/2004 7:00 p -- 54.5 54.5 54.9 53.9 -- -- 0.0 0.0 --- 0.00 29.982
11/18/2004 7:30 p -- 54.0 54.0 54.4 53.3 -- -- 0.0 0.0 --- 0.00 29.982
11/18/2004 8:00 p -- 53.6 53.6 54.0 53.2 -- -- 0.0 0.0 --- 0.00 29.989
11/18/2004 8:30 p -- 53.8 53.8 54.4 53.2 -- -- 0.0 0.0 --- 0.00 29.993
11/18/2004 9:00 p -- 54.2 54.2 54.8 53.7 -- -- 0.0 0.0 --- 0.00 29.989
11/18/2004 9:30 p -- 53.9 53.9 54.6 53.4 -- -- 0.0 0.0 --- 0.00 29.984
11/18/2004 10:00 p -- 54.4 54.4 55.1 54.0 -- -- 0.0 0.0 --- 0.00 29.983
11/18/2004 10:30 p -- 54.2 54.2 54.9 53.5 -- -- 0.0 0.0 --- 0.00 29.972
11/18/2004 11:00 p -- 53.6 53.6 53.9 53.5 -- -- 0.0 0.0 --- 0.00 29.976
11/18/2004 11:30 p -- 53.6 53.6 53.9 53.2 -- -- 0.0 0.0 --- 0.00 29.980
11/19/2004 12:00 a -- 53.3 53.3 53.5 53.1 -- -- 0.0 0.0 --- 0.00 29.977
11/19/2004 12:30 a -- 53.5 53.5 53.7 53.3 -- -- 0.0 0.0 --- 0.00 29.970
11/19/2004 1:00 a